Observation data for Persimmon Gap on 06/25/2019      Previous  Date  Next       Current Mesonet Observations  Soil Data  Daily Summary Page  Observations in Plain Language
KPG1 250500Z 04029KT 24/20 A2995 RMK A01 T02390197  RH  077%=      5-min Rain = 0
KPG1 250501Z 03025G30KT 24/20 A2995 RMK A01 T02390197  RH  077%=      5-min Rain = 0
KPG1 250502Z 03028G33KT 24/20 A2995 RMK A01 T02390197  RH  077%=      5-min Rain = 0
KPG1 250503Z 03026G31KT 24/20 A2995 RMK A01 T02390197  RH  077%=      5-min Rain = 0
KPG1 250504Z 03024G29KT 24/20 A2995 RMK A01 T02390197  RH  078%=      5-min Rain = 0
KPG1 250505Z 03026G31KT 24/20 A2995 RMK A01 T02390198  RH  078%=      5-min Rain = 0
KPG1 250506Z 03026KT 24/20 A2995 RMK A01 T02380197  RH  078%=      5-min Rain = 0
KPG1 250507Z 03028G33KT 24/20 A2995 RMK A01 T02380197  RH  078%=      5-min Rain = 0
KPG1 250508Z 03029G35KT 24/20 A2995 RMK A01 T02380197  RH  078%=      5-min Rain = 0
KPG1 250509Z 03027KT 24/20 A2995 RMK A01 T02370197  RH  078%=      5-min Rain = 0
KPG1 250510Z 03026G32KT 24/20 A2995 RMK A01 T02370197  RH  078%=      5-min Rain = 0
KPG1 250511Z 03028G34KT 24/20 A2995 RMK A01 T02370197  RH  078%=      5-min Rain = 0
KPG1 250512Z 04025G36KT 24/20 A2995 RMK A01 T02360197  RH  078%=      5-min Rain = 0
KPG1 250513Z 03028G34KT 24/20 A2995 RMK A01 T02360197  RH  078%=      5-min Rain = 0
KPG1 250514Z 03026G33KT 24/20 A2995 RMK A01 T02360197  RH  079%=      5-min Rain = 0
KPG1 250515Z 04025G32KT 24/20 A2996 RMK A01 T02360197  RH  079%=      5-min Rain = 0
KPG1 250516Z 03025G30KT 24/20 A2995 RMK A01 T02360197  RH  079%=      5-min Rain = 0
KPG1 250517Z 03024KT 24/20 A2995 RMK A01 T02350196  RH  079%=      5-min Rain = 0
KPG1 250518Z 03021G27KT 24/20 A2995 RMK A01 T02360197  RH  079%=      5-min Rain = 0
KPG1 250519Z 03025KT 24/20 A2995 RMK A01 T02360197  RH  079%=      5-min Rain = 0
KPG1 250520Z 04022G28KT 24/20 A2996 RMK A01 T02350196  RH  079%=      5-min Rain = 0
KPG1 250521Z 04026KT 24/20 A2996 RMK A01 T02350197  RH  079%=      5-min Rain = 0
KPG1 250522Z 03022G29KT 24/20 A2996 RMK A01 T02350196  RH  079%=      5-min Rain = 0
KPG1 250523Z 03026G31KT 23/20 A2996 RMK A01 T02340197  RH  079%=      5-min Rain = 0
KPG1 250524Z 03022KT 23/20 A2996 RMK A01 T02340196  RH  079%=      5-min Rain = 0
KPG1 250525Z 03024G31KT 23/20 A2996 RMK A01 T02340196  RH  079%=      5-min Rain = 0
KPG1 250526Z 03021KT 23/20 A2996 RMK A01 T02340197  RH  079%=      5-min Rain = 0
KPG1 250527Z 03021G27KT 23/20 A2996 RMK A01 T02340197  RH  079%=      5-min Rain = 0
KPG1 250528Z 03023KT 23/20 A2996 RMK A01 T02340197  RH  079%=      5-min Rain = 0
KPG1 250529Z 04022G27KT 23/20 A2996 RMK A01 T02340196  RH  079%=      5-min Rain = 0
KPG1 250530Z 03024KT 23/20 A2996 RMK A01 T02330196  RH  080%=      5-min Rain = 0
KPG1 250531Z 03024G31KT 23/20 A2996 RMK A01 T02330196  RH  080%=      5-min Rain = 0
KPG1 250532Z 03025G31KT 23/20 A2996 RMK A01 T02330196  RH  080%=      5-min Rain = 0
KPG1 250533Z 03024G29KT 23/20 A2996 RMK A01 T02330196  RH  080%=      5-min Rain = 0
KPG1 250534Z 04020G27KT 23/20 A2996 RMK A01 T02330196  RH  080%=      5-min Rain = 0
KPG1 250535Z 03020KT 23/20 A2997 RMK A01 T02330197  RH  080%=      5-min Rain = 0
KPG1 250536Z 03023G28KT 23/20 A2997 RMK A01 T02330197  RH  080%=      5-min Rain = 0
KPG1 250537Z 03022G28KT 23/20 A2997 RMK A01 T02330196  RH  080%=      5-min Rain = 0
KPG1 250538Z 03020G25KT 23/20 A2997 RMK A01 T02330196  RH  080%=      5-min Rain = 0
KPG1 250539Z 03020KT 23/20 A2997 RMK A01 T02330197  RH  080%=      5-min Rain = 0
KPG1 250540Z 03019KT 23/20 A2997 RMK A01 T02330196  RH  080%=      5-min Rain = 0
KPG1 250541Z 04016KT 23/20 A2997 RMK A01 T02330197  RH  080%=      5-min Rain = 0
KPG1 250542Z 03017KT 23/20 A2997 RMK A01 T02320196  RH  080%=      5-min Rain = 0
KPG1 250543Z 03020KT 23/20 A2996 RMK A01 T02320196  RH  080%=      5-min Rain = 0
KPG1 250544Z 04022KT 23/20 A2996 RMK A01 T02320196  RH  080%=      5-min Rain = 0
KPG1 250545Z 04024KT 23/20 A2996 RMK A01 T02320196  RH  080%=      5-min Rain = 0
KPG1 250546Z 04022KT 23/20 A2996 RMK A01 T02320196  RH  080%=      5-min Rain = 0
KPG1 250547Z 04018G24KT 23/20 A2996 RMK A01 T02320196  RH  080%=      5-min Rain = 0
KPG1 250548Z 04022G27KT 23/20 A2996 RMK A01 T02320196  RH  080%=      5-min Rain = 0
KPG1 250549Z 04020G25KT 23/20 A2996 RMK A01 T02320197  RH  080%=      5-min Rain = 0
KPG1 250550Z 03021KT 23/20 A2996 RMK A01 T02320196  RH  080%=      5-min Rain = 0
KPG1 250551Z 03022KT 23/20 A2996 RMK A01 T02320196  RH  080%=      5-min Rain = 0
KPG1 250552Z 03024KT 23/20 A2997 RMK A01 T02320196  RH  080%=      5-min Rain = 0
KPG1 250553Z 03023G29KT 23/20 A2997 RMK A01 T02320196  RH  080%=      5-min Rain = 0
KPG1 250554Z 03021G28KT 23/20 A2997 RMK A01 T02320196  RH  080%=      5-min Rain = 0
KPG1 250555Z 03022G27KT 23/20 A2997 RMK A01 T02320196  RH  080%=      5-min Rain = 0
KPG1 250556Z 02022G29KT 23/20 A2997 RMK A01 T02310196  RH  080%=      5-min Rain = 0
KPG1 250557Z 03023G28KT 23/20 A2997 RMK A01 T02320196  RH  080%=      5-min Rain = 0
KPG1 250558Z 03022KT 23/20 A2997 RMK A01 T02320196  RH  080%=      5-min Rain = 0
KPG1 250559Z 03024G29KT 23/20 A2997 RMK A01 T02310196  RH  080%=      5-min Rain = 0
KPG1 250600Z 03024KT 23/20 A2997 RMK A01 T02320196  RH  080%=      5-min Rain = 0
KPG1 250601Z 03021KT 23/20 A2997 RMK A01 T02320196  RH  080%=      5-min Rain = 0
KPG1 250602Z 03023KT 23/20 A2997 RMK A01 T02320196  RH  080%=      5-min Rain = 0
KPG1 250603Z 03023G28KT 23/20 A2997 RMK A01 T02320196  RH  080%=      5-min Rain = 0
KPG1 250604Z 03022G29KT 23/20 A2997 RMK A01 T02320196  RH  080%=      5-min Rain = 0
KPG1 250605Z 03023G29KT 23/20 A2997 RMK A01 T02320196  RH  080%=      5-min Rain = 0
KPG1 250606Z 03024KT 23/20 A2997 RMK A01 T02320196  RH  080%=      5-min Rain = 0
KPG1 250607Z 03023KT 23/20 A2997 RMK A01 T02320196  RH  080%=      5-min Rain = 0
KPG1 250608Z 03024KT 23/20 A2997 RMK A01 T02320196  RH  080%=      5-min Rain = 0
KPG1 250609Z 03023KT 23/20 A2997 RMK A01 T02320196  RH  080%=      5-min Rain = 0
KPG1 250610Z 03022G28KT 23/20 A2997 RMK A01 T02320196  RH  080%=      5-min Rain = 0
KPG1 250611Z 03022KT 23/20 A2997 RMK A01 T02320196  RH  080%=      5-min Rain = 0
KPG1 250612Z 03021KT 23/20 A2997 RMK A01 T02320196  RH  080%=      5-min Rain = 0
KPG1 250613Z 03021KT 23/20 A2997 RMK A01 T02320196  RH  080%=      5-min Rain = 0
KPG1 250614Z 03022G28KT 23/20 A2997 RMK A01 T02320196  RH  080%=      5-min Rain = 0
KPG1 250615Z 03022KT 23/20 A2997 RMK A01 T02320196  RH  080%=      5-min Rain = 0
KPG1 250616Z 04021KT 23/20 A2997 RMK A01 T02320196  RH  080%=      5-min Rain = 0
KPG1 250617Z 03023G29KT 23/20 A2997 RMK A01 T02320196  RH  080%=      5-min Rain = 0
KPG1 250618Z 04020KT 23/20 A2997 RMK A01 T02320196  RH  080%=      5-min Rain = 0
KPG1 250619Z 03020KT 23/20 A2997 RMK A01 T02330196  RH  080%=      5-min Rain = 0
KPG1 250620Z 03022KT 23/20 A2997 RMK A01 T02320195  RH  079%=      5-min Rain = 0
KPG1 250621Z 03022KT 23/19 A2997 RMK A01 T02320194  RH  079%=      5-min Rain = 0
KPG1 250622Z 04020KT 23/19 A2997 RMK A01 T02320194  RH  079%=      5-min Rain = 0
KPG1 250623Z 04022KT 23/19 A2997 RMK A01 T02320193  RH  079%=      5-min Rain = 0
KPG1 250624Z 04022G28KT 23/19 A2997 RMK A01 T02310192  RH  079%=      5-min Rain = 0
KPG1 250625Z 04025KT 23/19 A2997 RMK A01 T02310192  RH  078%=      5-min Rain = 0
KPG1 250626Z 04023KT 23/19 A2997 RMK A01 T02310191  RH  078%=      5-min Rain = 0
KPG1 250627Z 03018KT 23/19 A2998 RMK A01 T02300191  RH  078%=      5-min Rain = 0
KPG1 250628Z 03022KT 23/19 A2998 RMK A01 T02310190  RH  078%=      5-min Rain = 0
KPG1 250629Z 03024KT 23/19 A2997 RMK A01 T02310189  RH  078%=      5-min Rain = 0
KPG1 250630Z 03025KT 23/19 A2998 RMK A01 T02310189  RH  078%=      5-min Rain = 0
KPG1 250631Z 03020G27KT 23/19 A2997 RMK A01 T02300189  RH  078%=      5-min Rain = 0
KPG1 250632Z 04026KT 23/19 A2997 RMK A01 T02300189  RH  078%=      5-min Rain = 0
KPG1 250633Z 04023KT 23/19 A2997 RMK A01 T02290188  RH  078%=      5-min Rain = 0
KPG1 250634Z 04022KT 23/19 A2997 RMK A01 T02290189  RH  078%=      5-min Rain = 0
KPG1 250635Z 04022G27KT 23/19 A2997 RMK A01 T02290189  RH  078%=      5-min Rain = 0
KPG1 250636Z 03024KT 23/19 A2997 RMK A01 T02290189  RH  078%=      5-min Rain = 0
KPG1 250637Z 04022G27KT 23/19 A2997 RMK A01 T02290189  RH  078%=      5-min Rain = 0
KPG1 250638Z 03024KT 23/19 A2997 RMK A01 T02290188  RH  078%=      5-min Rain = 0
KPG1 250639Z 03023KT 23/19 A2997 RMK A01 T02290189  RH  078%=      5-min Rain = 0
KPG1 250640Z 03023KT 23/19 A2997 RMK A01 T02280189  RH  078%=      5-min Rain = 0
KPG1 250641Z 03023G28KT 23/19 A2997 RMK A01 T02280189  RH  078%=      5-min Rain = 0
KPG1 250642Z 04025KT 23/19 A2997 RMK A01 T02280189  RH  078%=      5-min Rain = 0
KPG1 250643Z 03022KT 23/19 A2997 RMK A01 T02280189  RH  078%=      5-min Rain = 0
KPG1 250644Z 03023KT 23/19 A2997 RMK A01 T02280189  RH  078%=      5-min Rain = 0
KPG1 250645Z 03021KT 23/19 A2997 RMK A01 T02280189  RH  078%=      5-min Rain = 0
KPG1 250646Z 03020KT 23/19 A2997 RMK A01 T02280189  RH  079%=      5-min Rain = 0
KPG1 250647Z 03023KT 23/19 A2997 RMK A01 T02280189  RH  079%=      5-min Rain = 0
KPG1 250648Z 03022KT 23/19 A2997 RMK A01 T02280189  RH  079%=      5-min Rain = 0
KPG1 250649Z 03021KT 23/19 A2997 RMK A01 T02280189  RH  079%=      5-min Rain = 0
KPG1 250650Z 03021KT 23/19 A2997 RMK A01 T02280189  RH  079%=      5-min Rain = 0
KPG1 250651Z 04021KT 23/19 A2997 RMK A01 T02270189  RH  079%=      5-min Rain = 0
KPG1 250652Z 03021KT 23/19 A2997 RMK A01 T02270189  RH  079%=      5-min Rain = 0
KPG1 250653Z 03018KT 23/19 A2997 RMK A01 T02270189  RH  079%=      5-min Rain = 0
KPG1 250654Z 03019KT 23/19 A2997 RMK A01 T02270190  RH  079%=      5-min Rain = 0
KPG1 250655Z 03023KT 23/19 A2997 RMK A01 T02270190  RH  080%=      5-min Rain = 0
KPG1 250656Z 04022KT 23/19 A2997 RMK A01 T02270190  RH  080%=      5-min Rain = 0
KPG1 250657Z 04019G25KT 23/19 A2997 RMK A01 T02270190  RH  080%=      5-min Rain = 0
KPG1 250658Z 03024KT 23/19 A2997 RMK A01 T02270190  RH  080%=      5-min Rain = 0
KPG1 250659Z 04025KT 23/19 A2997 RMK A01 T02270191  RH  080%=      5-min Rain = 0
KPG1 250700Z 04019KT 23/19 A2997 RMK A01 T02270191  RH  080%=      5-min Rain = 0
KPG1 250701Z 03019KT 23/19 A2997 RMK A01 T02270191  RH  080%=      5-min Rain = 0
KPG1 250702Z 03019KT 23/19 A2997 RMK A01 T02270191  RH  080%=      5-min Rain = 0
KPG1 250703Z 03020KT 23/19 A2997 RMK A01 T02270191  RH  080%=      5-min Rain = 0
KPG1 250704Z 03020KT 23/19 A2997 RMK A01 T02270191  RH  080%=      5-min Rain = 0
KPG1 250705Z 03018KT 23/19 A2997 RMK A01 T02260191  RH  080%=      5-min Rain = 0
KPG1 250706Z 03020KT 23/19 A2997 RMK A01 T02270191  RH  080%=      5-min Rain = 0
KPG1 250707Z 03022G29KT 23/19 A2997 RMK A01 T02270191  RH  080%=      5-min Rain = 0
KPG1 250708Z 04022KT 23/19 A2997 RMK A01 T02260191  RH  080%=      5-min Rain = 0
KPG1 250709Z 04022G27KT 23/19 A2997 RMK A01 T02260191  RH  081%=      5-min Rain = 0
KPG1 250710Z 04023G30KT 23/19 A2997 RMK A01 T02260191  RH  081%=      5-min Rain = 0
KPG1 250711Z 04023G28KT 23/19 A2997 RMK A01 T02260191  RH  080%=      5-min Rain = 0
KPG1 250712Z 03020KT 23/19 A2997 RMK A01 T02260189  RH  080%=      5-min Rain = 0
KPG1 250713Z 04021KT 23/18 A2997 RMK A01 T02250183  RH  077%=      5-min Rain = 0
KPG1 250714Z 03024KT 22/18 A2997 RMK A01 T02240179  RH  075%=      5-min Rain = 0
KPG1 250715Z 03021KT 22/18 A2997 RMK A01 T02230176  RH  074%=      5-min Rain = 0
KPG1 250716Z 03021KT 22/18 A2997 RMK A01 T02230175  RH  074%=      5-min Rain = 0
KPG1 250717Z 03016KT 22/17 A2997 RMK A01 T02220174  RH  074%=      5-min Rain = 0
KPG1 250718Z 03015G22KT 22/17 A2997 RMK A01 T02220174  RH  074%=      5-min Rain = 0
KPG1 250719Z 03021KT 22/17 A2997 RMK A01 T02220173  RH  074%=      5-min Rain = 0
KPG1 250720Z 03020KT 22/17 A2997 RMK A01 T02210173  RH  074%=      5-min Rain = 0
KPG1 250721Z 03016KT 22/17 A2997 RMK A01 T02210173  RH  074%=      5-min Rain = 0
KPG1 250722Z 03018KT 22/17 A2997 RMK A01 T02210173  RH  074%=      5-min Rain = 0
KPG1 250723Z 03018G24KT 22/17 A2997 RMK A01 T02210173  RH  074%=      5-min Rain = 0
KPG1 250724Z 03020KT 22/17 A2997 RMK A01 T02210173  RH  074%=      5-min Rain = 0
KPG1 250725Z 03018KT 22/17 A2997 RMK A01 T02200173  RH  074%=      5-min Rain = 0
KPG1 250726Z 03017G23KT 22/17 A2997 RMK A01 T02210173  RH  075%=      5-min Rain = 0
KPG1 250727Z 04018G23KT 22/17 A2997 RMK A01 T02210173  RH  074%=      5-min Rain = 0
KPG1 250728Z 03015KT 22/17 A2997 RMK A01 T02210173  RH  075%=      5-min Rain = 0
KPG1 250729Z 04017G22KT 22/17 A2997 RMK A01 T02210174  RH  075%=      5-min Rain = 0
KPG1 250730Z 03017KT 22/17 A2997 RMK A01 T02200174  RH  075%=      5-min Rain = 0
KPG1 250731Z 03015KT 22/17 A2997 RMK A01 T02200174  RH  075%=      5-min Rain = 0
KPG1 250732Z 03014KT 22/18 A2997 RMK A01 T02200175  RH  075%=      5-min Rain = 0
KPG1 250733Z 03013KT 22/18 A2997 RMK A01 T02200175  RH  075%=      5-min Rain = 0
KPG1 250734Z 03022KT 22/18 A2997 RMK A01 T02210175  RH  075%=      5-min Rain = 0
KPG1 250735Z 04020KT 22/18 A2997 RMK A01 T02200177  RH  076%=      5-min Rain = 0
KPG1 250736Z 04020KT 22/18 A2997 RMK A01 T02200177  RH  077%=      5-min Rain = 0
KPG1 250737Z 04017KT 22/18 A2997 RMK A01 T02200177  RH  077%=      5-min Rain = 0
KPG1 250738Z 03016KT 22/18 A2997 RMK A01 T02200177  RH  077%=      5-min Rain = 0
KPG1 250739Z 03016KT 22/18 A2997 RMK A01 T02200178  RH  077%=      5-min Rain = 0
KPG1 250740Z 03017KT 22/18 A2997 RMK A01 T02200178  RH  077%=      5-min Rain = 0
KPG1 250741Z 03022G27KT 22/18 A2997 RMK A01 T02200179  RH  078%=      5-min Rain = 0
KPG1 250742Z 04023KT 22/18 A2997 RMK A01 T02200181  RH  078%=      5-min Rain = 0
KPG1 250743Z 03020G25KT 22/18 A2997 RMK A01 T02200182  RH  079%=      5-min Rain = 0
KPG1 250744Z 04020KT 22/18 A2998 RMK A01 T02200182  RH  079%=      5-min Rain = 0
KPG1 250745Z 03018KT 22/18 A2997 RMK A01 T02200182  RH  079%=      5-min Rain = 0
KPG1 250746Z 03020KT 22/18 A2997 RMK A01 T02200183  RH  079%=      5-min Rain = 0
KPG1 250747Z 04020KT 22/18 A2997 RMK A01 T02190183  RH  080%=      5-min Rain = 0
KPG1 250748Z 03018KT 22/18 A2997 RMK A01 T02190183  RH  080%=      5-min Rain = 0
KPG1 250749Z 03017KT 22/18 A2997 RMK A01 T02190183  RH  080%=      5-min Rain = 0
KPG1 250750Z 03016KT 22/18 A2997 RMK A01 T02190184  RH  080%=      5-min Rain = 0
KPG1 250751Z 03019KT 22/18 A2997 RMK A01 T02190184  RH  080%=      5-min Rain = 0
KPG1 250752Z 03022KT 22/19 A2997 RMK A01 T02190185  RH  081%=      5-min Rain = 0
KPG1 250753Z 03020KT 22/19 A2997 RMK A01 T02190186  RH  081%=      5-min Rain = 0
KPG1 250754Z 03020KT 22/19 A2997 RMK A01 T02190186  RH  081%=      5-min Rain = 0
KPG1 250755Z 03022KT 22/19 A2997 RMK A01 T02190186  RH  082%=      5-min Rain = 0
KPG1 250756Z 03020KT 22/19 A2997 RMK A01 T02190187  RH  082%=      5-min Rain = 0
KPG1 250757Z 03021KT 22/19 A2997 RMK A01 T02190188  RH  082%=      5-min Rain = 0
KPG1 250758Z 03021KT 22/19 A2997 RMK A01 T02190189  RH  083%=      5-min Rain = 0
KPG1 250759Z 04021KT 22/19 A2997 RMK A01 T02190190  RH  083%=      5-min Rain = 0
KPG1 250800Z 03021KT 22/19 A2997 RMK A01 T02190190  RH  083%=      5-min Rain = 0
KPG1 250801Z 03022KT 22/19 A2997 RMK A01 T02190190  RH  084%=      5-min Rain = 0
KPG1 250802Z 03021KT 22/19 A2997 RMK A01 T02190190  RH  084%=      5-min Rain = 0
KPG1 250803Z 03021KT 22/19 A2997 RMK A01 T02190190  RH  084%=      5-min Rain = 0
KPG1 250804Z 03019KT 22/19 A2997 RMK A01 T02190191  RH  084%=      5-min Rain = 0
KPG1 250805Z 03018KT 22/19 A2997 RMK A01 T02190191  RH  084%=      5-min Rain = 0
KPG1 250806Z 03021KT 22/19 A2997 RMK A01 T02190190  RH  084%=      5-min Rain = 0
KPG1 250807Z 03021KT 22/19 A2997 RMK A01 T02180190  RH  084%=      5-min Rain = 0
KPG1 250808Z 03019KT 22/19 A2997 RMK A01 T02190191  RH  084%=      5-min Rain = 0
KPG1 250809Z 03020KT 22/19 A2997 RMK A01 T02180190  RH  084%=      5-min Rain = 0
KPG1 250810Z 03023KT 22/19 A2997 RMK A01 T02180190  RH  084%=      5-min Rain = 0
KPG1 250811Z 03023KT 22/19 A2997 RMK A01 T02180190  RH  084%=      5-min Rain = 0
KPG1 250812Z 03020KT 22/19 A2997 RMK A01 T02170190  RH  084%=      5-min Rain = 0
KPG1 250813Z 03020KT 22/19 A2997 RMK A01 T02170190  RH  084%=      5-min Rain = 0
KPG1 250814Z 03019KT 22/19 A2997 RMK A01 T02170190  RH  084%=      5-min Rain = 0
KPG1 250815Z 03019KT 22/19 A2997 RMK A01 T02180190  RH  084%=      5-min Rain = 0
KPG1 250816Z 03019KT 22/19 A2997 RMK A01 T02170190  RH  084%=      5-min Rain = 0
KPG1 250817Z 03017KT 22/19 A2997 RMK A01 T02180190  RH  084%=      5-min Rain = 0
KPG1 250818Z 04017KT 22/19 A2997 RMK A01 T02170190  RH  084%=      5-min Rain = 0
KPG1 250819Z 03018G24KT 22/19 A2997 RMK A01 T02170190  RH  084%=      5-min Rain = 0
KPG1 250820Z 03018KT 22/19 A2997 RMK A01 T02170190  RH  084%=      5-min Rain = 0
KPG1 250821Z 03016KT 22/19 A2997 RMK A01 T02170190  RH  084%=      5-min Rain = 0
KPG1 250822Z 03015KT 22/19 A2997 RMK A01 T02170190  RH  084%=      5-min Rain = 0
KPG1 250823Z 03016KT 22/19 A2997 RMK A01 T02170190  RH  084%=      5-min Rain = 0
KPG1 250824Z 03015KT 22/19 A2997 RMK A01 T02170190  RH  084%=      5-min Rain = 0
KPG1 250825Z 03017G22KT 22/19 A2997 RMK A01 T02170190  RH  084%=      5-min Rain = 0
KPG1 250826Z 04016KT 22/19 A2997 RMK A01 T02170190  RH  084%=      5-min Rain = 0
KPG1 250827Z 03018KT 22/19 A2997 RMK A01 T02170189  RH  084%=      5-min Rain = 0
KPG1 250828Z 03019KT 22/19 A2997 RMK A01 T02170189  RH  084%=      5-min Rain = 0
KPG1 250829Z 03020KT 22/19 A2997 RMK A01 T02170189  RH  084%=      5-min Rain = 0
KPG1 250830Z 04019KT 22/19 A2997 RMK A01 T02170189  RH  084%=      5-min Rain = 0
KPG1 250831Z 04017G22KT 22/19 A2997 RMK A01 T02170189  RH  084%=      5-min Rain = 0
KPG1 250832Z 04018G26KT 22/19 A2997 RMK A01 T02170189  RH  084%=      5-min Rain = 0
KPG1 250833Z 04017G22KT 22/19 A2997 RMK A01 T02170189  RH  084%=      5-min Rain = 0
KPG1 250834Z 04016KT 22/19 A2997 RMK A01 T02170189  RH  084%=      5-min Rain = 0
KPG1 250835Z 04015KT 22/19 A2997 RMK A01 T02170189  RH  084%=      5-min Rain = 0
KPG1 250836Z 04013KT 22/19 A2997 RMK A01 T02170189  RH  084%=      5-min Rain = 0
KPG1 250837Z 04016KT 22/19 A2997 RMK A01 T02170189  RH  084%=      5-min Rain = 0
KPG1 250838Z 04015KT 22/19 A2997 RMK A01 T02170189  RH  084%=      5-min Rain = 0
KPG1 250839Z 04015KT 22/19 A2997 RMK A01 T02170189  RH  084%=      5-min Rain = 0
KPG1 250840Z 03015KT 22/19 A2997 RMK A01 T02170189  RH  084%=      5-min Rain = 0
KPG1 250841Z 03016KT 22/19 A2997 RMK A01 T02170189  RH  084%=      5-min Rain = 0
KPG1 250842Z 03017KT 22/19 A2997 RMK A01 T02170188  RH  084%=      5-min Rain = 0
KPG1 250843Z 03018KT 22/19 A2997 RMK A01 T02170188  RH  084%=      5-min Rain = 0
KPG1 250844Z 04016KT 22/19 A2997 RMK A01 T02170188  RH  084%=      5-min Rain = 0
KPG1 250845Z 03018KT 22/19 A2997 RMK A01 T02170188  RH  084%=      5-min Rain = 0
KPG1 250846Z 03016KT 22/19 A2997 RMK A01 T02160187  RH  084%=      5-min Rain = 0
KPG1 250847Z 03016G21KT 22/19 A2997 RMK A01 T02160187  RH  083%=      5-min Rain = 0
KPG1 250848Z 03018KT 22/19 A2997 RMK A01 T02160187  RH  083%=      5-min Rain = 0
KPG1 250849Z 04018KT 22/19 A2997 RMK A01 T02160187  RH  083%=      5-min Rain = 0
KPG1 250850Z 04018KT 22/19 A2997 RMK A01 T02150186  RH  083%=      5-min Rain = 0
KPG1 250851Z 04017KT 22/19 A2997 RMK A01 T02160186  RH  083%=      5-min Rain = 0
KPG1 250852Z 04017KT 22/19 A2997 RMK A01 T02160186  RH  083%=      5-min Rain = 0
KPG1 250853Z 04015KT 22/19 A2997 RMK A01 T02160186  RH  083%=      5-min Rain = 0
KPG1 250854Z 04014KT 22/19 A2997 RMK A01 T02160186  RH  083%=      5-min Rain = 0
KPG1 250855Z 04016KT 22/19 A2997 RMK A01 T02160186  RH  083%=      5-min Rain = 0
KPG1 250856Z 04014KT 22/19 A2997 RMK A01 T02160187  RH  083%=      5-min Rain = 0
KPG1 250857Z 03014KT 22/19 A2997 RMK A01 T02160187  RH  083%=      5-min Rain = 0
KPG1 250858Z 03013KT 22/19 A2997 RMK A01 T02170187  RH  083%=      5-min Rain = 0
KPG1 250859Z 03015KT 22/19 A2997 RMK A01 T02170187  RH  083%=      5-min Rain = 0
KPG1 250900Z 03013KT 22/19 A2997 RMK A01 T02170187  RH  083%=      5-min Rain = 0
KPG1 250901Z 03017KT 22/19 A2997 RMK A01 T02160186  RH  083%=      5-min Rain = 0
KPG1 250902Z 04015KT 22/19 A2997 RMK A01 T02160186  RH  083%=      5-min Rain = 0
KPG1 250903Z 04014KT 22/19 A2997 RMK A01 T02160186  RH  083%=      5-min Rain = 0
KPG1 250904Z 04014KT 22/19 A2997 RMK A01 T02160186  RH  083%=      5-min Rain = 0
KPG1 250905Z 04012KT 22/19 A2997 RMK A01 T02160186  RH  083%=      5-min Rain = 0
KPG1 250906Z 03013KT 22/19 A2997 RMK A01 T02160186  RH  083%=      5-min Rain = 0
KPG1 250907Z 04015KT 22/19 A2997 RMK A01 T02160186  RH  083%=      5-min Rain = 0
KPG1 250908Z 03015KT 22/19 A2997 RMK A01 T02150186  RH  083%=      5-min Rain = 0
KPG1 250909Z 04013KT 22/19 A2997 RMK A01 T02150186  RH  083%=      5-min Rain = 0
KPG1 250910Z 03014KT 22/19 A2997 RMK A01 T02150186  RH  083%=      5-min Rain = 0
KPG1 250911Z 03014KT 22/19 A2997 RMK A01 T02150185  RH  083%=      5-min Rain = 0
KPG1 250912Z 03016KT 21/19 A2997 RMK A01 T02140185  RH  083%=      5-min Rain = 0
KPG1 250913Z 03014KT 21/18 A2997 RMK A01 T02130184  RH  084%=      5-min Rain = 0
KPG1 250914Z 02014KT 21/19 A2997 RMK A01 T02130185  RH  084%=      5-min Rain = 0
KPG1 250915Z 03013KT 21/19 A2997 RMK A01 T02130185  RH  084%=      5-min Rain = 0
KPG1 250916Z 03012KT 21/19 A2997 RMK A01 T02130185  RH  084%=      5-min Rain = 0
KPG1 250917Z 03014KT 21/19 A2997 RMK A01 T02130185  RH  084%=      5-min Rain = 0
KPG1 250918Z 03017KT 21/19 A2997 RMK A01 T02130185  RH  084%=      5-min Rain = 0
KPG1 250919Z 03017KT 21/18 A2997 RMK A01 T02130184  RH  084%=      5-min Rain = 0
KPG1 250920Z 04016KT 21/19 A2997 RMK A01 T02130185  RH  084%=      5-min Rain = 0
KPG1 250921Z 04017KT 21/19 A2998 RMK A01 T02130185  RH  084%=      5-min Rain = 0
KPG1 250922Z 03016KT 21/18 A2997 RMK A01 T02120184  RH  084%=      5-min Rain = 0
KPG1 250923Z 03017KT 21/18 A2997 RMK A01 T02120184  RH  084%=      5-min Rain = 0
KPG1 250924Z 03014KT 21/18 A2997 RMK A01 T02120184  RH  084%=      5-min Rain = 0
KPG1 250925Z 04016KT 21/18 A2997 RMK A01 T02120184  RH  084%=      5-min Rain = 0
KPG1 250926Z 04016KT 21/18 A2997 RMK A01 T02110184  RH  084%=      5-min Rain = 0
KPG1 250927Z 04016KT 21/18 A2997 RMK A01 T02110184  RH  084%=      5-min Rain = 0
KPG1 250928Z 04014KT 21/18 A2998 RMK A01 T02110184  RH  085%=      5-min Rain = 0
KPG1 250929Z 03013KT 21/18 A2998 RMK A01 T02110184  RH  085%=      5-min Rain = 0
KPG1 250930Z 03015KT 21/18 A2998 RMK A01 T02110184  RH  085%=      5-min Rain = 0
KPG1 250931Z 03014KT 21/18 A2998 RMK A01 T02110184  RH  085%=      5-min Rain = 0
KPG1 250932Z 03013KT 21/18 A2997 RMK A01 T02110184  RH  085%=      5-min Rain = 0
KPG1 250933Z 02014KT 21/18 A2997 RMK A01 T02110184  RH  085%=      5-min Rain = 0
KPG1 250934Z 03013KT 21/18 A2997 RMK A01 T02110184  RH  085%=      5-min Rain = 0
KPG1 250935Z 02014KT 21/19 A2997 RMK A01 T02110185  RH  085%=      5-min Rain = 0
KPG1 250936Z 03013KT 21/18 A2997 RMK A01 T02110184  RH  085%=      5-min Rain = 0
KPG1 250937Z 03013KT 21/18 A2998 RMK A01 T02100184  RH  085%=      5-min Rain = 0
KPG1 250938Z 03013KT 21/18 A2998 RMK A01 T02100184  RH  085%=      5-min Rain = 0
KPG1 250939Z 03013KT 21/18 A2997 RMK A01 T02100184  RH  085%=      5-min Rain = 0
KPG1 250940Z 03012KT 21/18 A2997 RMK A01 T02100184  RH  085%=      5-min Rain = 0
KPG1 250941Z 04013KT 21/18 A2998 RMK A01 T02100184  RH  085%=      5-min Rain = 0
KPG1 250942Z 03011KT 21/18 A2998 RMK A01 T02090184  RH  085%=      5-min Rain = 0
KPG1 250943Z 02012KT 21/18 A2998 RMK A01 T02090184  RH  085%=      5-min Rain = 0
KPG1 250944Z 02014KT 21/18 A2998 RMK A01 T02090184  RH  086%=      5-min Rain = 0
KPG1 250945Z 02014KT 21/18 A2998 RMK A01 T02090184  RH  086%=      5-min Rain = 0
KPG1 250946Z 02015KT 21/18 A2998 RMK A01 T02080184  RH  086%=      5-min Rain = 0
KPG1 250947Z 02013KT 21/18 A2998 RMK A01 T02080184  RH  086%=      5-min Rain = 0
KPG1 250948Z 02013KT 21/18 A2998 RMK A01 T02080184  RH  086%=      5-min Rain = 0
KPG1 250949Z 02012KT 21/18 A2998 RMK A01 T02080184  RH  086%=      5-min Rain = 0
KPG1 250950Z 02013KT 21/18 A2998 RMK A01 T02080184  RH  086%=      5-min Rain = 0
KPG1 250951Z 02012KT 21/18 A2998 RMK A01 T02070184  RH  086%=      5-min Rain = 0
KPG1 250952Z 02013KT 21/18 A2998 RMK A01 T02070184  RH  087%=      5-min Rain = 0
KPG1 250953Z 02012KT 21/18 A2998 RMK A01 T02070184  RH  087%=      5-min Rain = 0
KPG1 250954Z 01012KT 21/18 A2998 RMK A01 T02070184  RH  087%=      5-min Rain = 0
KPG1 250955Z 02013KT 21/18 A2998 RMK A01 T02070184  RH  087%=      5-min Rain = 0
KPG1 250956Z 02013KT 21/18 A2998 RMK A01 T02070184  RH  087%=      5-min Rain = 0
KPG1 250957Z 02014KT 21/18 A2998 RMK A01 T02070184  RH  087%=      5-min Rain = 0
KPG1 250958Z 02013KT 21/18 A2998 RMK A01 T02060184  RH  087%=      5-min Rain = 0
KPG1 250959Z 01014KT 21/18 A2998 RMK A01 T02060184  RH  087%=      5-min Rain = 0
KPG1 251000Z 02013KT 21/18 A2999 RMK A01 T02060184  RH  087%=      5-min Rain = 0
KPG1 251001Z 02013KT 21/18 A2999 RMK A01 T02060184  RH  087%=      5-min Rain = 0
KPG1 251002Z 02011KT 21/18 A2999 RMK A01 T02060184  RH  087%=      5-min Rain = 0
KPG1 251003Z 02011KT 21/18 A2999 RMK A01 T02060183  RH  087%=      5-min Rain = 0
KPG1 251004Z 02011KT 21/18 A2998 RMK A01 T02060184  RH  087%=      5-min Rain = 0
KPG1 251005Z 03011KT 21/18 A2998 RMK A01 T02060184  RH  087%=      5-min Rain = 0
KPG1 251006Z 02012KT 21/18 A2998 RMK A01 T02060184  RH  087%=      5-min Rain = 0
KPG1 251007Z 02012KT 21/18 A2998 RMK A01 T02060184  RH  087%=      5-min Rain = 0
KPG1 251008Z 01012KT 21/18 A2998 RMK A01 T02060184  RH  087%=      5-min Rain = 0
KPG1 251009Z 02013KT 21/18 A2998 RMK A01 T02060184  RH  087%=      5-min Rain = 0
KPG1 251010Z 01012KT 21/18 A2998 RMK A01 T02060184  RH  087%=      5-min Rain = 0
KPG1 251011Z 02013KT 21/18 A2999 RMK A01 T02060184  RH  087%=      5-min Rain = 0
KPG1 251012Z 01013KT 21/18 A2999 RMK A01 T02060184  RH  087%=      5-min Rain = 0
KPG1 251013Z 02013KT 21/18 A2999 RMK A01 T02060184  RH  087%=      5-min Rain = 0
KPG1 251014Z 02014KT 21/18 A2999 RMK A01 T02060183  RH  087%=      5-min Rain = 0
KPG1 251015Z 02014KT 21/18 A2999 RMK A01 T02060183  RH  087%=      5-min Rain = 0
KPG1 251016Z 02014KT 21/18 A2999 RMK A01 T02060183  RH  087%=      5-min Rain = 0
KPG1 251017Z 02014KT 21/18 A2999 RMK A01 T02050183  RH  087%=      5-min Rain = 0
KPG1 251018Z 02014KT 21/18 A2999 RMK A01 T02050183  RH  087%=      5-min Rain = 0
KPG1 251019Z 02013KT 21/18 A2999 RMK A01 T02050183  RH  087%=      5-min Rain = 0
KPG1 251020Z 02014KT 21/18 A2999 RMK A01 T02060183  RH  087%=      5-min Rain = 0
KPG1 251021Z 02015KT 21/18 A2999 RMK A01 T02060184  RH  087%=      5-min Rain = 0
KPG1 251022Z 03014KT 21/18 A2999 RMK A01 T02050183  RH  087%=      5-min Rain = 0
KPG1 251023Z 03014KT 21/18 A2999 RMK A01 T02050183  RH  087%=      5-min Rain = 0
KPG1 251024Z 03014KT 21/18 A2999 RMK A01 T02050183  RH  087%=      5-min Rain = 0
KPG1 251025Z 03014KT 21/18 A2999 RMK A01 T02050183  RH  087%=      5-min Rain = 0
KPG1 251026Z 02013KT 21/18 A2999 RMK A01 T02050183  RH  087%=      5-min Rain = 0
KPG1 251027Z 02014KT 21/18 A2999 RMK A01 T02050183  RH  087%=      5-min Rain = 0
KPG1 251028Z 02013KT 21/18 A2999 RMK A01 T02050183  RH  087%=      5-min Rain = 0
KPG1 251029Z 03012KT 21/18 A2999 RMK A01 T02050183  RH  087%=      5-min Rain = 0
KPG1 251030Z 02014KT 21/18 A2999 RMK A01 T02050183  RH  087%=      5-min Rain = 0
KPG1 251031Z 02014KT 21/18 A2999 RMK A01 T02050183  RH  087%=      5-min Rain = 0
KPG1 251032Z 03012KT 21/18 A2999 RMK A01 T02050183  RH  087%=      5-min Rain = 0
KPG1 251033Z 02013KT 21/18 A2999 RMK A01 T02050183  RH  087%=      5-min Rain = 0
KPG1 251034Z 03013KT 21/18 A2999 RMK A01 T02050183  RH  087%=      5-min Rain = 0
KPG1 251035Z 02014KT 21/18 A2999 RMK A01 T02050183  RH  087%=      5-min Rain = 0
KPG1 251036Z 02016KT 21/18 A2999 RMK A01 T02050183  RH  087%=      5-min Rain = 0
KPG1 251037Z 02014KT 21/18 A2999 RMK A01 T02050182  RH  087%=      5-min Rain = 0
KPG1 251038Z 02013KT 21/18 A2999 RMK A01 T02050182  RH  087%=      5-min Rain = 0
KPG1 251039Z 02014KT 20/18 A2999 RMK A01 T02040182  RH  087%=      5-min Rain = 0
KPG1 251040Z 03013KT 20/18 A2999 RMK A01 T02040182  RH  087%=      5-min Rain = 0
KPG1 251041Z 02013KT 20/18 A2999 RMK A01 T02040182  RH  087%=      5-min Rain = 0
KPG1 251042Z 03013KT 20/18 A2999 RMK A01 T02040182  RH  087%=      5-min Rain = 0
KPG1 251043Z 03013KT 20/18 A30 RMK A01 T02040182  RH  087%=      5-min Rain = 0
KPG1 251044Z 03014KT 20/18 A30 RMK A01 T02040182  RH  087%=      5-min Rain = 0
KPG1 251045Z 03013KT 20/18 A30 RMK A01 T02040182  RH  087%=      5-min Rain = 0
KPG1 251046Z 03013KT 20/18 A30 RMK A01 T02040183  RH  087%=      5-min Rain = 0
KPG1 251047Z 03014KT 20/18 A30 RMK A01 T02040182  RH  087%=      5-min Rain = 0
KPG1 251048Z 03015KT 20/18 A30 RMK A01 T02040182  RH  087%=      5-min Rain = 0
KPG1 251049Z 04014KT 20/18 A30 RMK A01 T02040182  RH  087%=      5-min Rain = 0
KPG1 251050Z 03013KT 20/18 A30 RMK A01 T02040182  RH  087%=      5-min Rain = 0
KPG1 251051Z 03014KT 20/18 A30 RMK A01 T02040182  RH  087%=      5-min Rain = 0
KPG1 251052Z 02014KT 20/18 A30 RMK A01 T02040182  RH  087%=      5-min Rain = 0
KPG1 251053Z 02014KT 20/18 A30 RMK A01 T02040181  RH  087%=      5-min Rain = 0
KPG1 251054Z 02014KT 20/18 A30 RMK A01 T02040181  RH  087%=      5-min Rain = 0
KPG1 251055Z 02014KT 20/18 A30 RMK A01 T02040181  RH  087%=      5-min Rain = 0
KPG1 251056Z 03012KT 20/18 A30 RMK A01 T02040182  RH  087%=      5-min Rain = 0
KPG1 251057Z 03015KT 20/18 A30 RMK A01 T02030181  RH  087%=      5-min Rain = 0
KPG1 251058Z 03013KT 20/18 A30 RMK A01 T02030181  RH  087%=      5-min Rain = 0
KPG1 251059Z 03012KT 20/18 A30 RMK A01 T02030181  RH  087%=      5-min Rain = 0
KPG1 251100Z 03013KT 20/18 A30 RMK A01 T02030181  RH  087%=      5-min Rain = 0
KPG1 251101Z 03011KT 20/18 A30 RMK A01 T02030181  RH  087%=      5-min Rain = 0
KPG1 251102Z 03012KT 20/18 A30 RMK A01 T02030181  RH  087%=      5-min Rain = 0
KPG1 251103Z 03012KT 20/18 A30 RMK A01 T02030181  RH  087%=      5-min Rain = 0
KPG1 251104Z 03015KT 20/18 A30 RMK A01 T02030181  RH  088%=      5-min Rain = 0
KPG1 251105Z 03012KT 20/18 A30 RMK A01 T02020181  RH  088%=      5-min Rain = 0
KPG1 251106Z 03011KT 20/18 A30 RMK A01 T02020181  RH  088%=      5-min Rain = 0
KPG1 251107Z 03013KT 20/18 A30 RMK A01 T02020181  RH  088%=      5-min Rain = 0
KPG1 251108Z 03013KT 20/18 A30 RMK A01 T02020181  RH  088%=      5-min Rain = 0
KPG1 251109Z 03012KT 20/18 A30 RMK A01 T02020181  RH  088%=      5-min Rain = 0
KPG1 251110Z 03012KT 20/18 A30 RMK A01 T02020181  RH  088%=      5-min Rain = 0
KPG1 251111Z 03013KT 20/18 A30 RMK A01 T02020181  RH  088%=      5-min Rain = 0
KPG1 251112Z 03013KT 20/18 A30 RMK A01 T02020181  RH  088%=      5-min Rain = 0
KPG1 251113Z 03013KT 20/18 A30 RMK A01 T02020181  RH  088%=      5-min Rain = 0
KPG1 251114Z 02013KT 20/18 A30 RMK A01 T02020181  RH  088%=      5-min Rain = 0
KPG1 251115Z 03011KT 20/18 A30 RMK A01 T02020181  RH  088%=      5-min Rain = 0
KPG1 251116Z 04011KT 20/18 A30 RMK A01 T02020181  RH  088%=      5-min Rain = 0
KPG1 251117Z 03012KT 20/18 A30 RMK A01 T02020181  RH  088%=      5-min Rain = 0
KPG1 251118Z 03012KT 20/18 A30 RMK A01 T02010181  RH  088%=      5-min Rain = 0
KPG1 251119Z 03013KT 20/18 A30 RMK A01 T02010181  RH  088%=      5-min Rain = 0
KPG1 251120Z 02013KT 20/18 A30 RMK A01 T02010181  RH  088%=      5-min Rain = 0
KPG1 251121Z 03013KT 20/18 A30 RMK A01 T02010181  RH  088%=      5-min Rain = 0
KPG1 251122Z 02014KT 20/18 A30 RMK A01 T02020181  RH  088%=      5-min Rain = 0
KPG1 251123Z 03015KT 20/18 A30 RMK A01 T02020181  RH  088%=      5-min Rain = 0
KPG1 251124Z 03014KT 20/18 A3001 RMK A01 T02020181  RH  088%=      5-min Rain = 0
KPG1 251125Z 02013KT 20/18 A3001 RMK A01 T02020181  RH  088%=      5-min Rain = 0
KPG1 251126Z 03015KT 20/18 A3001 RMK A01 T02020180  RH  087%=      5-min Rain = 0
KPG1 251127Z 03014KT 20/18 A3001 RMK A01 T02020180  RH  088%=      5-min Rain = 0
KPG1 251128Z 03011KT 20/18 A3001 RMK A01 T02020181  RH  088%=      5-min Rain = 0
KPG1 251129Z 03012KT 20/18 A3001 RMK A01 T02020181  RH  088%=      5-min Rain = 0
KPG1 251130Z 04013KT 20/18 A3001 RMK A01 T02020181  RH  088%=      5-min Rain = 0
KPG1 251131Z 03014KT 20/18 A3001 RMK A01 T02010181  RH  088%=      5-min Rain = 0
KPG1 251132Z 03013KT 20/18 A3001 RMK A01 T02010181  RH  088%=      5-min Rain = 0
KPG1 251133Z 04012KT 20/18 A3002 RMK A01 T02010181  RH  088%=      5-min Rain = 0
KPG1 251134Z 03012KT 20/18 A3002 RMK A01 T02010181  RH  088%=      5-min Rain = 0
KPG1 251135Z 03013KT 20/18 A3002 RMK A01 T02010181  RH  088%=      5-min Rain = 0
KPG1 251136Z 04012KT 20/18 A3002 RMK A01 T02010181  RH  088%=      5-min Rain = 0
KPG1 251137Z 04011KT 20/18 A3002 RMK A01 T02010181  RH  088%=      5-min Rain = 0
KPG1 251138Z 04012KT 20/18 A3002 RMK A01 T02010181  RH  088%=      5-min Rain = 0
KPG1 251139Z 04011KT 20/18 A3002 RMK A01 T02010181  RH  088%=      5-min Rain = 0
KPG1 251140Z 04012KT 20/18 A3002 RMK A01 T02010181  RH  088%=      5-min Rain = 0
KPG1 251141Z 04012KT 20/18 A3002 RMK A01 T02010181  RH  088%=      5-min Rain = 0
KPG1 251142Z 04011KT 20/18 A3002 RMK A01 T02010181  RH  088%=      5-min Rain = 0
KPG1 251143Z 03010KT 20/18 A3002 RMK A01 T02010181  RH  088%=      5-min Rain = 0
KPG1 251144Z 03009KT 20/18 A3002 RMK A01 T02010181  RH  088%=      5-min Rain = 0
KPG1 251145Z 03010KT 20/18 A3002 RMK A01 T02010181  RH  088%=      5-min Rain = 0
KPG1 251146Z 02012KT 20/18 A3002 RMK A01 T02000181  RH  088%=      5-min Rain = 0
KPG1 251147Z 03010KT 20/18 A3002 RMK A01 T02010181  RH  088%=      5-min Rain = 0
KPG1 251148Z 02010KT 20/18 A3002 RMK A01 T02010180  RH  088%=      5-min Rain = 0
KPG1 251149Z 02010KT 20/18 A3002 RMK A01 T02010181  RH  088%=      5-min Rain = 0
KPG1 251150Z 02011KT 20/18 A3002 RMK A01 T02010180  RH  088%=      5-min Rain = 0
KPG1 251151Z 02011KT 20/18 A3002 RMK A01 T02010180  RH  088%=      5-min Rain = 0
KPG1 251152Z 02012KT 20/18 A3002 RMK A01 T02010180  RH  087%=      5-min Rain = 0
KPG1 251153Z 01011KT 20/18 A3002 RMK A01 T02020180  RH  087%=      5-min Rain = 0
KPG1 251154Z 02011KT 20/18 A3002 RMK A01 T02020179  RH  087%=      5-min Rain = 0
KPG1 251155Z 02013KT 20/18 A3002 RMK A01 T02020179  RH  087%=      5-min Rain = 0
KPG1 251156Z 02012KT 20/18 A3002 RMK A01 T02020179  RH  087%=      5-min Rain = 0
KPG1 251157Z 02011KT 20/18 A3002 RMK A01 T02020179  RH  086%=      5-min Rain = 0
KPG1 251158Z 02011KT 20/18 A3002 RMK A01 T02020179  RH  086%=      5-min Rain = 0
KPG1 251159Z 02011KT 20/18 A3002 RMK A01 T02020179  RH  086%=      5-min Rain = 0
KPG1 251200Z 02012KT 20/18 A3002 RMK A01 T02020179  RH  086%=      5-min Rain = 0
KPG1 251201Z 02011KT 20/18 A3002 RMK A01 T02020178  RH  086%=      5-min Rain = 0
KPG1 251202Z 02012KT 20/18 A3002 RMK A01 T02020178  RH  086%=      5-min Rain = 0
KPG1 251203Z 02011KT 20/18 A3002 RMK A01 T02020178  RH  086%=      5-min Rain = 0
KPG1 251204Z 02012KT 20/18 A3002 RMK A01 T02020178  RH  086%=      5-min Rain = 0
KPG1 251205Z 02013KT 20/18 A3002 RMK A01 T02020178  RH  086%=      5-min Rain = 0
KPG1 251206Z 02011KT 20/18 A3002 RMK A01 T02030178  RH  086%=      5-min Rain = 0
KPG1 251207Z 03011KT 20/18 A3002 RMK A01 T02030178  RH  086%=      5-min Rain = 0
KPG1 251208Z 02013KT 20/18 A3002 RMK A01 T02030178  RH  086%=      5-min Rain = 0
KPG1 251209Z 02012KT 20/18 A3002 RMK A01 T02030178  RH  086%=      5-min Rain = 0
KPG1 251210Z 02010KT 20/18 A3002 RMK A01 T02030178  RH  085%=      5-min Rain = 0
KPG1 251211Z 02012KT 20/18 A3002 RMK A01 T02030178  RH  085%=      5-min Rain = 0
KPG1 251212Z 02011KT 20/18 A3002 RMK A01 T02030178  RH  085%=      5-min Rain = 0
KPG1 251213Z 01011KT 20/18 A3002 RMK A01 T02030178  RH  085%=      5-min Rain = 0
KPG1 251214Z 01012KT 20/18 A3002 RMK A01 T02030178  RH  085%=      5-min Rain = 0
KPG1 251215Z 01010KT 20/18 A3002 RMK A01 T02030178  RH  085%=      5-min Rain = 0
KPG1 251216Z 01010KT 20/18 A3002 RMK A01 T02030178  RH  085%=      5-min Rain = 0
KPG1 251217Z 01012KT 20/18 A3002 RMK A01 T02030178  RH  085%=      5-min Rain = 0
KPG1 251218Z 02011KT 20/18 A3002 RMK A01 T02030177  RH  085%=      5-min Rain = 0
KPG1 251219Z 01011KT 20/18 A3002 RMK A01 T02030178  RH  085%=      5-min Rain = 0
KPG1 251220Z 01010KT 20/18 A3002 RMK A01 T02030177  RH  085%=      5-min Rain = 0
KPG1 251221Z 01011KT 20/18 A3002 RMK A01 T02030177  RH  085%=      5-min Rain = 0
KPG1 251222Z 01012KT 20/18 A3002 RMK A01 T02030177  RH  085%=      5-min Rain = 0
KPG1 251223Z 02009KT 20/18 A3002 RMK A01 T02040177  RH  085%=      5-min Rain = 0
KPG1 251224Z 02011KT 20/18 A3002 RMK A01 T02040178  RH  085%=      5-min Rain = 0
KPG1 251225Z 02011KT 20/18 A3002 RMK A01 T02040177  RH  085%=      5-min Rain = 0
KPG1 251226Z 01012KT 20/18 A3002 RMK A01 T02040177  RH  085%=      5-min Rain = 0
KPG1 251227Z 01012KT 20/18 A3002 RMK A01 T02040177  RH  084%=      5-min Rain = 0
KPG1 251228Z 01013KT 20/18 A3002 RMK A01 T02040177  RH  084%=      5-min Rain = 0
KPG1 251229Z 01012KT 20/18 A3002 RMK A01 T02040177  RH  084%=      5-min Rain = 0
KPG1 251230Z 01013KT 21/18 A3002 RMK A01 T02050177  RH  084%=      5-min Rain = 0
KPG1 251231Z 01010KT 21/18 A3002 RMK A01 T02050177  RH  084%=      5-min Rain = 0
KPG1 251232Z 01010KT 21/18 A3002 RMK A01 T02050177  RH  084%=      5-min Rain = 0
KPG1 251233Z 01010KT 21/18 A3002 RMK A01 T02050177  RH  084%=      5-min Rain = 0
KPG1 251234Z 01010KT 21/18 A3002 RMK A01 T02050177  RH  084%=      5-min Rain = 0
KPG1 251235Z 01010KT 21/18 A3002 RMK A01 T02050177  RH  084%=      5-min Rain = 0
KPG1 251236Z 01012KT 21/18 A3002 RMK A01 T02050177  RH  084%=      5-min Rain = 0
KPG1 251237Z 02011KT 21/18 A3003 RMK A01 T02050176  RH  083%=      5-min Rain = 0
KPG1 251238Z 03011KT 21/18 A3002 RMK A01 T02060177  RH  083%=      5-min Rain = 0
KPG1 251239Z 01011KT 21/18 A3003 RMK A01 T02060176  RH  083%=      5-min Rain = 0
KPG1 251240Z 01012KT 21/18 A3003 RMK A01 T02070177  RH  083%=      5-min Rain = 0
KPG1 251241Z 00012KT 21/18 A3003 RMK A01 T02070176  RH  082%=      5-min Rain = 0
KPG1 251242Z 01010KT 21/18 A3003 RMK A01 T02070176  RH  082%=      5-min Rain = 0
KPG1 251243Z 02010KT 21/18 A3003 RMK A01 T02080176  RH  082%=      5-min Rain = 0
KPG1 251244Z 01012KT 21/18 A3003 RMK A01 T02080176  RH  082%=      5-min Rain = 0
KPG1 251245Z 02010KT 21/18 A3003 RMK A01 T02080176  RH  082%=      5-min Rain = 0
KPG1 251246Z 01009KT 21/18 A3003 RMK A01 T02080176  RH  082%=      5-min Rain = 0
KPG1 251247Z 02008KT 21/18 A3003 RMK A01 T02090176  RH  082%=      5-min Rain = 0
KPG1 251248Z 01010KT 21/18 A3003 RMK A01 T02100176  RH  081%=      5-min Rain = 0
KPG1 251249Z 02011KT 21/18 A3003 RMK A01 T02100176  RH  081%=      5-min Rain = 0
KPG1 251250Z 02009KT 21/18 A3003 RMK A01 T02110176  RH  081%=      5-min Rain = 0
KPG1 251251Z 02009KT 21/18 A3003 RMK A01 T02110176  RH  080%=      5-min Rain = 0
KPG1 251252Z 02010KT 21/18 A3003 RMK A01 T02110175  RH  080%=      5-min Rain = 0
KPG1 251253Z 02011KT 21/18 A3003 RMK A01 T02110175  RH  080%=      5-min Rain = 0
KPG1 251254Z 02010KT 21/18 A3002 RMK A01 T02120175  RH  080%=      5-min Rain = 0
KPG1 251255Z 02010KT 21/18 A3002 RMK A01 T02120175  RH  080%=      5-min Rain = 0
KPG1 251256Z 01010KT 21/18 A3002 RMK A01 T02120175  RH  080%=      5-min Rain = 0
KPG1 251257Z 01008KT 21/18 A3002 RMK A01 T02120175  RH  079%=      5-min Rain = 0
KPG1 251258Z 03008KT 21/18 A3002 RMK A01 T02130176  RH  079%=      5-min Rain = 0
KPG1 251259Z 01010KT 21/18 A3002 RMK A01 T02130175  RH  079%=      5-min Rain = 0
KPG1 251300Z 01010KT 21/18 A3002 RMK A01 T02130175  RH  079%=      5-min Rain = 0
KPG1 251301Z 01011KT 21/18 A3002 RMK A01 T02130175  RH  079%=      5-min Rain = 0
KPG1 251302Z 02008KT 21/18 A3002 RMK A01 T02130175  RH  079%=      5-min Rain = 0
KPG1 251303Z 03012KT 22/18 A3002 RMK A01 T02150176  RH  079%=      5-min Rain = 0
KPG1 251304Z 03011KT 22/18 A3002 RMK A01 T02150175  RH  078%=      5-min Rain = 0
KPG1 251305Z 03012KT 22/18 A3002 RMK A01 T02150175  RH  078%=      5-min Rain = 0
KPG1 251306Z 03010KT 22/18 A3002 RMK A01 T02150175  RH  078%=      5-min Rain = 0
KPG1 251307Z 02011KT 22/17 A3002 RMK A01 T02150174  RH  077%=      5-min Rain = 0
KPG1 251308Z 03010KT 22/17 A3002 RMK A01 T02150174  RH  078%=      5-min Rain = 0
KPG1 251309Z 03009KT 22/18 A3002 RMK A01 T02150175  RH  078%=      5-min Rain = 0
KPG1 251310Z 02010KT 22/18 A3002 RMK A01 T02160175  RH  077%=      5-min Rain = 0
KPG1 251311Z 01009KT 22/18 A3002 RMK A01 T02160175  RH  077%=      5-min Rain = 0
KPG1 251312Z 02009KT 22/18 A3002 RMK A01 T02160175  RH  077%=      5-min Rain = 0
KPG1 251313Z 02009KT 22/18 A3002 RMK A01 T02180176  RH  077%=      5-min Rain = 0
KPG1 251314Z 02012KT 22/18 A3002 RMK A01 T02180175  RH  076%=      5-min Rain = 0
KPG1 251315Z 01011KT 22/17 A3002 RMK A01 T02190174  RH  076%=      5-min Rain = 0
KPG1 251316Z 02010KT 22/17 A3002 RMK A01 T02180174  RH  076%=      5-min Rain = 0
KPG1 251317Z 02009KT 22/18 A3002 RMK A01 T02180175  RH  077%=      5-min Rain = 0
KPG1 251318Z 01009KT 22/17 A3002 RMK A01 T02180174  RH  076%=      5-min Rain = 0
KPG1 251319Z 01010KT 22/17 A3002 RMK A01 T02180174  RH  076%=      5-min Rain = 0
KPG1 251320Z 03009KT 22/18 A3002 RMK A01 T02190175  RH  076%=      5-min Rain = 0
KPG1 251321Z 03012KT 22/18 A3002 RMK A01 T02200175  RH  076%=      5-min Rain = 0
KPG1 251322Z 01010KT 22/18 A3002 RMK A01 T02200175  RH  075%=      5-min Rain = 0
KPG1 251323Z 01008KT 22/18 A3002 RMK A01 T02200175  RH  075%=      5-min Rain = 0
KPG1 251324Z 03011KT 22/17 A3002 RMK A01 T02200174  RH  075%=      5-min Rain = 0
KPG1 251325Z 03011KT 22/17 A3003 RMK A01 T02210174  RH  075%=      5-min Rain = 0
KPG1 251326Z 01010KT 22/17 A3003 RMK A01 T02210174  RH  075%=      5-min Rain = 0
KPG1 251327Z 02010KT 22/17 A3003 RMK A01 T02210174  RH  075%=      5-min Rain = 0
KPG1 251328Z 04011KT 22/17 A3003 RMK A01 T02210173  RH  074%=      5-min Rain = 0
KPG1 251329Z 03011KT 22/17 A3003 RMK A01 T02210173  RH  074%=      5-min Rain = 0
KPG1 251330Z 04010KT 22/17 A3003 RMK A01 T02210174  RH  075%=      5-min Rain = 0
KPG1 251331Z 03011KT 22/17 A3003 RMK A01 T02210174  RH  075%=      5-min Rain = 0
KPG1 251332Z 03010KT 22/17 A3002 RMK A01 T02220174  RH  074%=      5-min Rain = 0
KPG1 251333Z 02011KT 22/17 A3002 RMK A01 T02220174  RH  074%=      5-min Rain = 0
KPG1 251334Z 03010KT 22/17 A3002 RMK A01 T02230174  RH  074%=      5-min Rain = 0
KPG1 251335Z 01010KT 22/17 A3002 RMK A01 T02220174  RH  074%=      5-min Rain = 0
KPG1 251336Z 03008KT 22/17 A3002 RMK A01 T02220173  RH  074%=      5-min Rain = 0
KPG1 251337Z 02009KT 22/17 A3002 RMK A01 T02220173  RH  074%=      5-min Rain = 0
KPG1 251338Z 03009KT 22/17 A3003 RMK A01 T02230172  RH  073%=      5-min Rain = 0
KPG1 251339Z 02009KT 22/17 A3003 RMK A01 T02230172  RH  073%=      5-min Rain = 0
KPG1 251340Z 02007KT 22/17 A3003 RMK A01 T02230172  RH  073%=      5-min Rain = 0
KPG1 251341Z 03007KT 22/17 A3003 RMK A01 T02230174  RH  074%=      5-min Rain = 0
KPG1 251342Z 02009KT 23/17 A3003 RMK A01 T02250174  RH  073%=      5-min Rain = 0
KPG1 251343Z 03008KT 23/17 A3003 RMK A01 T02250174  RH  073%=      5-min Rain = 0
KPG1 251344Z 03009KT 23/17 A3003 RMK A01 T02250174  RH  073%=      5-min Rain = 0
KPG1 251345Z 03008KT 23/17 A3003 RMK A01 T02260174  RH  072%=      5-min Rain = 0
KPG1 251346Z 03008KT 23/17 A3003 RMK A01 T02270174  RH  072%=      5-min Rain = 0
KPG1 251347Z 03008KT 23/17 A3003 RMK A01 T02270174  RH  072%=      5-min Rain = 0
KPG1 251348Z 02008KT 23/17 A3003 RMK A01 T02270173  RH  071%=      5-min Rain = 0
KPG1 251349Z 03008KT 23/17 A3003 RMK A01 T02270173  RH  072%=      5-min Rain = 0
KPG1 251350Z 02009KT 23/17 A3003 RMK A01 T02270173  RH  072%=      5-min Rain = 0
KPG1 251351Z 02007KT 23/17 A3003 RMK A01 T02280173  RH  071%=      5-min Rain = 0
KPG1 251352Z 03007KT 23/17 A3003 RMK A01 T02270173  RH  071%=      5-min Rain = 0
KPG1 251353Z 04007KT 23/17 A3003 RMK A01 T02270173  RH  071%=      5-min Rain = 0
KPG1 251354Z 03007KT 23/17 A3003 RMK A01 T02280174  RH  071%=      5-min Rain = 0
KPG1 251355Z 04007KT 23/17 A3003 RMK A01 T02300174  RH  071%=      5-min Rain = 0
KPG1 251356Z 02005KT 23/17 A3003 RMK A01 T02310173  RH  070%=      5-min Rain = 0
KPG1 251357Z 02006KT 23/17 A3003 RMK A01 T02300172  RH  070%=      5-min Rain = 0
KPG1 251358Z 02007KT 23/17 A3003 RMK A01 T02290173  RH  071%=      5-min Rain = 0
KPG1 251359Z 36006KT 23/17 A3003 RMK A01 T02290173  RH  070%=      5-min Rain = 0
KPG1 251400Z 02005KT 23/17 A3003 RMK A01 T02300172  RH  070%=      5-min Rain = 0
KPG1 251401Z 01007KT 23/17 A3003 RMK A01 T02300173  RH  070%=      5-min Rain = 0
KPG1 251402Z 00006KT 23/17 A3003 RMK A01 T02300173  RH  070%=      5-min Rain = 0
KPG1 251403Z 36006KT 23/17 A3003 RMK A01 T02310174  RH  070%=      5-min Rain = 0
KPG1 251404Z 01005KT 23/17 A3003 RMK A01 T02320173  RH  070%=      5-min Rain = 0
KPG1 251405Z 04004KT 23/18 A3003 RMK A01 T02340175  RH  070%=      5-min Rain = 0
KPG1 251406Z 06003KT 23/17 A3003 RMK A01 T02340173  RH  069%=      5-min Rain = 0
KPG1 251407Z 05007KT 23/17 A3003 RMK A01 T02340174  RH  069%=      5-min Rain = 0
KPG1 251408Z 05006KT 24/17 A3003 RMK A01 T02350174  RH  068%=      5-min Rain = 0
KPG1 251409Z 05005KT 24/17 A3003 RMK A01 T02360174  RH  068%=      5-min Rain = 0
KPG1 251410Z 03003KT 24/17 A3003 RMK A01 T02360174  RH  068%=      5-min Rain = 0
KPG1 251411Z 00001KT 24/17 A3003 RMK A01 T02380174  RH  067%=      5-min Rain = 0
KPG1 251412Z 01003KT 24/17 A3003 RMK A01 T02390173  RH  067%=      5-min Rain = 0
KPG1 251413Z 03004KT 24/18 A3003 RMK A01 T02400177  RH  068%=      5-min Rain = 0
KPG1 251414Z 05003KT 24/17 A3003 RMK A01 T02420174  RH  066%=      5-min Rain = 0
KPG1 251415Z 06003KT 24/18 A3003 RMK A01 T02420175  RH  066%=      5-min Rain = 0
KPG1 251416Z 07003KT 24/17 A3003 RMK A01 T02430174  RH  065%=      5-min Rain = 0
KPG1 251417Z 32003KT 25/18 A3003 RMK A01 T02450175  RH  065%=      5-min Rain = 0
KPG1 251418Z 29004KT 25/17 A3003 RMK A01 T02450174  RH  065%=      5-min Rain = 0
KPG1 251419Z 26004KT 25/18 A3004 RMK A01 T02450175  RH  065%=      5-min Rain = 0
KPG1 251420Z 26004KT 25/17 A3004 RMK A01 T02450174  RH  064%=      5-min Rain = 0
KPG1 251421Z 28002KT 24/17 A3004 RMK A01 T02440172  RH  064%=      5-min Rain = 0
KPG1 251422Z 27002KT 24/17 A3004 RMK A01 T02430172  RH  064%=      5-min Rain = 0
KPG1 251423Z 28002KT 24/17 A3004 RMK A01 T02430171  RH  064%=      5-min Rain = 0
KPG1 251424Z 25005KT 24/17 A3004 RMK A01 T02420173  RH  065%=      5-min Rain = 0
KPG1 251425Z 24004KT 24/17 A3004 RMK A01 T02420173  RH  065%=      5-min Rain = 0
KPG1 251426Z 23005KT 24/17 A3004 RMK A01 T02420174  RH  066%=      5-min Rain = 0
KPG1 251427Z 22004KT 24/17 A3004 RMK A01 T02420173  RH  065%=      5-min Rain = 0
KPG1 251428Z 22003KT 24/17 A3004 RMK A01 T02420174  RH  066%=      5-min Rain = 0
KPG1 251429Z 24003KT 24/18 A3004 RMK A01 T02420176  RH  066%=      5-min Rain = 0
KPG1 251430Z 23005KT 24/18 A3004 RMK A01 T02440175  RH  065%=      5-min Rain = 0
KPG1 251431Z 21005KT 25/18 A3004 RMK A01 T02450175  RH  065%=      5-min Rain = 0
KPG1 251432Z 21005KT 25/18 A3004 RMK A01 T02450176  RH  065%=      5-min Rain = 0
KPG1 251433Z 21004KT 25/17 A3004 RMK A01 T02470173  RH  064%=      5-min Rain = 0
KPG1 251434Z 19004KT 25/17 A3004 RMK A01 T02450172  RH  064%=      5-min Rain = 0
KPG1 251435Z 21004KT 24/17 A3004 RMK A01 T02440174  RH  065%=      5-min Rain = 0
KPG1 251436Z 21004KT 25/17 A3004 RMK A01 T02450174  RH  065%=      5-min Rain = 0
KPG1 251437Z 20004KT 25/17 A3004 RMK A01 T02450174  RH  065%=      5-min Rain = 0
KPG1 251438Z 21004KT 24/17 A3004 RMK A01 T02440174  RH  065%=      5-min Rain = 0
KPG1 251439Z 18003KT 24/17 A3003 RMK A01 T02440172  RH  064%=      5-min Rain = 0
KPG1 251440Z 12001KT 24/17 A3003 RMK A01 T02440173  RH  065%=      5-min Rain = 0
KPG1 251441Z 20001KT 25/18 A3003 RMK A01 T02460175  RH  065%=      5-min Rain = 0
KPG1 251442Z 22003KT 25/17 A3003 RMK A01 T02490174  RH  063%=      5-min Rain = 0
KPG1 251443Z 22004KT 25/17 A3003 RMK A01 T02490174  RH  063%=      5-min Rain = 0
KPG1 251444Z 25004KT 25/17 A3003 RMK A01 T02490173  RH  063%=      5-min Rain = 0
KPG1 251445Z 25004KT 25/17 A3003 RMK A01 T02480173  RH  063%=      5-min Rain = 0
KPG1 251446Z 24005KT 25/17 A3003 RMK A01 T02460173  RH  064%=      5-min Rain = 0
KPG1 251447Z 22005KT 25/17 A3003 RMK A01 T02460173  RH  064%=      5-min Rain = 0
KPG1 251448Z 19004KT 25/17 A3003 RMK A01 T02460173  RH  064%=      5-min Rain = 0
KPG1 251449Z 19002KT 25/17 A3003 RMK A01 T02470171  RH  063%=      5-min Rain = 0
KPG1 251450Z 17002KT 25/17 A3003 RMK A01 T02470171  RH  063%=      5-min Rain = 0
KPG1 251451Z 12001KT 25/17 A3003 RMK A01 T02470172  RH  063%=      5-min Rain = 0
KPG1 251452Z 16002KT 25/17 A3003 RMK A01 T02480173  RH  063%=      5-min Rain = 0
KPG1 251453Z 17004KT 25/17 A3003 RMK A01 T02500174  RH  063%=      5-min Rain = 0
KPG1 251454Z 16004KT 25/17 A3003 RMK A01 T02500172  RH  062%=      5-min Rain = 0
KPG1 251455Z 14005KT 25/17 A3003 RMK A01 T02510171  RH  061%=      5-min Rain = 0
KPG1 251456Z 15006KT 25/17 A3003 RMK A01 T02520170  RH  060%=      5-min Rain = 0
KPG1 251457Z 16005KT 25/17 A3003 RMK A01 T02530167  RH  059%=      5-min Rain = 0
KPG1 251458Z 16005KT 25/17 A3003 RMK A01 T02520170  RH  060%=      5-min Rain = 0
KPG1 251459Z 16004KT 25/17 A3003 RMK A01 T02540169  RH  059%=      5-min Rain = 0
KPG1 251500Z 17004KT 26/17 A3003 RMK A01 T02550166  RH  058%=      5-min Rain = 0
KPG1 251501Z 20004KT 25/17 A3003 RMK A01 T02530167  RH  059%=      5-min Rain = 0
KPG1 251502Z 21007KT 25/17 A3003 RMK A01 T02530168  RH  059%=      5-min Rain = 0
KPG1 251503Z 21006KT 25/17 A3003 RMK A01 T02520165  RH  059%=      5-min Rain = 0
KPG1 251504Z 23009KT 25/17 A3003 RMK A01 T02530167  RH  059%=      5-min Rain = 0
KPG1 251505Z 22007KT 25/17 A3003 RMK A01 T02530166  RH  059%=      5-min Rain = 0
KPG1 251506Z 21010KT 25/16 A3003 RMK A01 T02530164  RH  058%=      5-min Rain = 0
KPG1 251507Z 19012KT 25/17 A3003 RMK A01 T02520166  RH  059%=      5-min Rain = 0
KPG1 251508Z 17008KT 25/16 A3003 RMK A01 T02530163  RH  057%=      5-min Rain = 0
KPG1 251509Z 20009KT 26/17 A3003 RMK A01 T02550165  RH  058%=      5-min Rain = 0
KPG1 251510Z 20006KT 26/17 A3003 RMK A01 T02560167  RH  058%=      5-min Rain = 0
KPG1 251511Z 21009KT 26/17 A3003 RMK A01 T02570165  RH  057%=      5-min Rain = 0
KPG1 251512Z 21010KT 26/16 A3003 RMK A01 T02560164  RH  057%=      5-min Rain = 0
KPG1 251513Z 20009KT 25/16 A3003 RMK A01 T02530163  RH  058%=      5-min Rain = 0
KPG1 251514Z 18011KT 25/16 A3003 RMK A01 T02510164  RH  058%=      5-min Rain = 0
KPG1 251515Z 18010KT 25/16 A3003 RMK A01 T02520162  RH  057%=      5-min Rain = 0
KPG1 251516Z 17007KT 25/16 A3003 RMK A01 T02530162  RH  057%=      5-min Rain = 0
KPG1 251517Z 18006KT 25/16 A3003 RMK A01 T02520164  RH  058%=      5-min Rain = 0
KPG1 251518Z 19009KT 26/17 A3003 RMK A01 T02550167  RH  058%=      5-min Rain = 0
KPG1 251519Z 18008G13KT 26/17 A3003 RMK A01 T02560165  RH  057%=      5-min Rain = 0
KPG1 251520Z 20008KT 26/17 A3003 RMK A01 T02570166  RH  057%=      5-min Rain = 0
KPG1 251521Z 19010KT 26/17 A3003 RMK A01 T02580167  RH  057%=      5-min Rain = 0
KPG1 251522Z 18009KT 26/16 A3003 RMK A01 T02600164  RH  055%=      5-min Rain = 0
KPG1 251523Z 18009KT 26/17 A3002 RMK A01 T02590165  RH  056%=      5-min Rain = 0
KPG1 251524Z 18007KT 26/17 A3002 RMK A01 T02580166  RH  057%=      5-min Rain = 0
KPG1 251525Z 17010KT 26/17 A3002 RMK A01 T02580166  RH  057%=      5-min Rain = 0
KPG1 251526Z 19010KT 26/16 A3002 RMK A01 T02600164  RH  056%=      5-min Rain = 0
KPG1 251527Z 19011KT 26/16 A3002 RMK A01 T02600164  RH  056%=      5-min Rain = 0
KPG1 251528Z 18008KT 26/16 A3002 RMK A01 T02590163  RH  056%=      5-min Rain = 0
KPG1 251529Z 17008KT 26/17 A3002 RMK A01 T02590165  RH  056%=      5-min Rain = 0
KPG1 251530Z 18008KT 26/17 A3002 RMK A01 T02590165  RH  056%=      5-min Rain = 0
KPG1 251531Z 18009KT 26/17 A3002 RMK A01 T02600167  RH  056%=      5-min Rain = 0
KPG1 251532Z 18008KT 26/17 A3002 RMK A01 T02600165  RH  056%=      5-min Rain = 0
KPG1 251533Z 19008KT 26/17 A3002 RMK A01 T02610168  RH  056%=      5-min Rain = 0
KPG1 251534Z 19008KT 26/17 A3002 RMK A01 T02630169  RH  056%=      5-min Rain = 0
KPG1 251535Z 20008KT 26/17 A3002 RMK A01 T02640167  RH  055%=      5-min Rain = 0
KPG1 251536Z 19008KT 26/17 A3002 RMK A01 T02620167  RH  056%=      5-min Rain = 0
KPG1 251537Z 21010KT 26/17 A3002 RMK A01 T02610167  RH  056%=      5-min Rain = 0
KPG1 251538Z 22008KT 26/17 A3002 RMK A01 T02610166  RH  056%=      5-min Rain = 0
KPG1 251539Z 22010KT 26/17 A3002 RMK A01 T02610167  RH  056%=      5-min Rain = 0
KPG1 251540Z 22010KT 26/17 A3002 RMK A01 T02610166  RH  056%=      5-min Rain = 0
KPG1 251541Z 22010KT 26/17 A3002 RMK A01 T02620166  RH  056%=      5-min Rain = 0
KPG1 251542Z 20011KT 26/17 A3002 RMK A01 T02620165  RH  055%=      5-min Rain = 0
KPG1 251543Z 19010KT 26/17 A3002 RMK A01 T02610165  RH  056%=      5-min Rain = 0
KPG1 251544Z 19010KT 26/17 A3002 RMK A01 T02610166  RH  056%=      5-min Rain = 0
KPG1 251545Z 19010KT 26/16 A3002 RMK A01 T02630164  RH  054%=      5-min Rain = 0
KPG1 251546Z 19010KT 26/17 A3002 RMK A01 T02630166  RH  055%=      5-min Rain = 0
KPG1 251547Z 18009KT 27/17 A3002 RMK A01 T02650166  RH  055%=      5-min Rain = 0
KPG1 251548Z 19010KT 27/17 A3002 RMK A01 T02660166  RH  054%=      5-min Rain = 0
KPG1 251549Z 20009KT 27/17 A3002 RMK A01 T02650165  RH  054%=      5-min Rain = 0
KPG1 251550Z 20009KT 26/17 A3002 RMK A01 T02630166  RH  055%=      5-min Rain = 0
KPG1 251551Z 22009KT 26/17 A3002 RMK A01 T02630165  RH  055%=      5-min Rain = 0
KPG1 251552Z 22008KT 26/17 A3002 RMK A01 T02640167  RH  055%=      5-min Rain = 0
KPG1 251553Z 21009KT 27/17 A3002 RMK A01 T02660168  RH  055%=      5-min Rain = 0
KPG1 251554Z 21008KT 27/17 A3002 RMK A01 T02670167  RH  054%=      5-min Rain = 0
KPG1 251555Z 21006KT 27/17 A3001 RMK A01 T02660166  RH  054%=      5-min Rain = 0
KPG1 251556Z 21007G13KT 27/17 A3001 RMK A01 T02660169  RH  055%=      5-min Rain = 0
KPG1 251557Z 21011KT 27/16 A3001 RMK A01 T02700164  RH  052%=      5-min Rain = 0
KPG1 251558Z 20008KT 27/17 A3002 RMK A01 T02720165  RH  052%=      5-min Rain = 0
KPG1 251559Z 19009KT 27/17 A3001 RMK A01 T02730165  RH  052%=      5-min Rain = 0
KPG1 251600Z 20008KT 28/17 A3001 RMK A01 T02750166  RH  051%=      5-min Rain = 0
KPG1 251601Z 21008KT 28/17 A3002 RMK A01 T02760165  RH  051%=      5-min Rain = 0
KPG1 251602Z 22009KT 28/16 A3002 RMK A01 T02750164  RH  051%=      5-min Rain = 0
KPG1 251603Z 21008KT 27/16 A3001 RMK A01 T02740164  RH  051%=      5-min Rain = 0
KPG1 251604Z 20007KT 28/17 A3001 RMK A01 T02750166  RH  051%=      5-min Rain = 0
KPG1 251605Z 19009KT 28/16 A3001 RMK A01 T02780163  RH  050%=      5-min Rain = 0
KPG1 251606Z 23008KT 28/17 A3001 RMK A01 T02790168  RH  051%=      5-min Rain = 0
KPG1 251607Z 21005KT 28/17 A3001 RMK A01 T02770168  RH  051%=      5-min Rain = 0
KPG1 251608Z 21008KT 28/17 A3001 RMK A01 T02750167  RH  051%=      5-min Rain = 0
KPG1 251609Z 23008KT 28/16 A3001 RMK A01 T02760164  RH  050%=      5-min Rain = 0
KPG1 251610Z 22009KT 28/16 A3001 RMK A01 T02780163  RH  050%=      5-min Rain = 0
KPG1 251611Z 21010KT 28/16 A3001 RMK A01 T02780161  RH  049%=      5-min Rain = 0
KPG1 251612Z 19010KT 28/16 A3001 RMK A01 T02770162  RH  049%=      5-min Rain = 0
KPG1 251613Z 20009KT 28/16 A3002 RMK A01 T02780158  RH  048%=      5-min Rain = 0
KPG1 251614Z 23011KT 28/16 A3001 RMK A01 T02770162  RH  049%=      5-min Rain = 0
KPG1 251615Z 22010KT 28/16 A3001 RMK A01 T02780162  RH  049%=      5-min Rain = 0
KPG1 251616Z 22007KT 28/16 A3002 RMK A01 T02790162  RH  049%=      5-min Rain = 0
KPG1 251617Z 22008KT 28/16 A3001 RMK A01 T02810161  RH  048%=      5-min Rain = 0
KPG1 251618Z 23007KT 28/16 A3001 RMK A01 T02830162  RH  048%=      5-min Rain = 0
KPG1 251619Z 23008KT 28/16 A3001 RMK A01 T02820162  RH  048%=      5-min Rain = 0
KPG1 251620Z 23009KT 28/16 A3001 RMK A01 T02800161  RH  048%=      5-min Rain = 0
KPG1 251621Z 23011KT 28/16 A3001 RMK A01 T02800159  RH  048%=      5-min Rain = 0
KPG1 251622Z 21009KT 28/16 A3001 RMK A01 T02790158  RH  047%=      5-min Rain = 0
KPG1 251623Z 22008KT 28/16 A3001 RMK A01 T02800156  RH  047%=      5-min Rain = 0
KPG1 251624Z 22007KT 28/16 A3001 RMK A01 T02800157  RH  047%=      5-min Rain = 0
KPG1 251625Z 19008KT 28/16 A3001 RMK A01 T02800159  RH  048%=      5-min Rain = 0
KPG1 251626Z 20009KT 28/16 A3001 RMK A01 T02840159  RH  047%=      5-min Rain = 0
KPG1 251627Z 20008KT 29/16 A3001 RMK A01 T02860158  RH  046%=      5-min Rain = 0
KPG1 251628Z 18008KT 29/16 A3001 RMK A01 T02850158  RH  046%=      5-min Rain = 0
KPG1 251629Z 19009KT 28/16 A3001 RMK A01 T02840159  RH  047%=      5-min Rain = 0
KPG1 251630Z 20007KT 28/16 A3001 RMK A01 T02840159  RH  046%=      5-min Rain = 0
KPG1 251631Z 20006KT 29/16 A3001 RMK A01 T02850156  RH  045%=      5-min Rain = 0
KPG1 251632Z 20006KT 28/16 A3001 RMK A01 T02840159  RH  047%=      5-min Rain = 0
KPG1 251633Z 18009KT 29/16 A3001 RMK A01 T02870160  RH  046%=      5-min Rain = 0
KPG1 251634Z 17008KT 29/16 A3001 RMK A01 T02900158  RH  045%=      5-min Rain = 0
KPG1 251635Z 20006KT 29/16 A3001 RMK A01 T02900157  RH  044%=      5-min Rain = 0
KPG1 251636Z 20007KT 29/16 A3001 RMK A01 T02900158  RH  045%=      5-min Rain = 0
KPG1 251637Z 22007KT 29/16 A3001 RMK A01 T02890163  RH  046%=      5-min Rain = 0
KPG1 251638Z 21005KT 29/17 A3001 RMK A01 T02890165  RH  047%=      5-min Rain = 0
KPG1 251639Z 24007KT 29/17 A3001 RMK A01 T02920165  RH  046%=      5-min Rain = 0
KPG1 251640Z 24005KT 29/17 A3001 RMK A01 T02920165  RH  046%=      5-min Rain = 0
KPG1 251641Z 25004KT 29/17 A3001 RMK A01 T02920165  RH  046%=      5-min Rain = 0
KPG1 251642Z 23004KT 29/16 A3001 RMK A01 T02920164  RH  046%=      5-min Rain = 0
KPG1 251643Z 25005KT 29/17 A3001 RMK A01 T02920166  RH  046%=      5-min Rain = 0
KPG1 251644Z 25005KT 29/16 A3001 RMK A01 T02920164  RH  046%=      5-min Rain = 0
KPG1 251645Z 24007KT 29/17 A3001 RMK A01 T02910166  RH  047%=      5-min Rain = 0
KPG1 251646Z 25008KT 29/16 A3001 RMK A01 T02910163  RH  046%=      5-min Rain = 0
KPG1 251647Z 24009KT 29/17 A3001 RMK A01 T02900165  RH  047%=      5-min Rain = 0
KPG1 251648Z 24008KT 29/17 A3001 RMK A01 T02890165  RH  047%=      5-min Rain = 0
KPG1 251649Z 22010KT 29/16 A3001 RMK A01 T02900162  RH  046%=      5-min Rain = 0
KPG1 251650Z 24010KT 29/16 A3001 RMK A01 T02910163  RH  046%=      5-min Rain = 0
KPG1 251651Z 25010KT 29/16 A3001 RMK A01 T02910162  RH  046%=      5-min Rain = 0
KPG1 251652Z 24010KT 29/16 A3001 RMK A01 T02900163  RH  046%=      5-min Rain = 0
KPG1 251653Z 25009KT 29/16 A3001 RMK A01 T02900164  RH  047%=      5-min Rain = 0
KPG1 251654Z 26009KT 29/16 A3001 RMK A01 T02900161  RH  046%=      5-min Rain = 0
KPG1 251655Z 26008KT 29/16 A3001 RMK A01 T02880162  RH  046%=      5-min Rain = 0
KPG1 251656Z 27009KT 29/16 A3001 RMK A01 T02880163  RH  047%=      5-min Rain = 0
KPG1 251657Z 27006KT 29/16 A3001 RMK A01 T02890161  RH  046%=      5-min Rain = 0
KPG1 251658Z 24003KT 29/16 A3001 RMK A01 T02870161  RH  046%=      5-min Rain = 0
KPG1 251659Z 18002KT 29/16 A3001 RMK A01 T02860161  RH  047%=      5-min Rain = 0
KPG1 251700Z 17003KT 29/16 A3001 RMK A01 T02870162  RH  047%=      5-min Rain = 0
KPG1 251701Z 24008KT 29/16 A3001 RMK A01 T02900163  RH  046%=      5-min Rain = 0
KPG1 251702Z 23010KT 29/16 A3001 RMK A01 T02940161  RH  045%=      5-min Rain = 0
KPG1 251703Z 24007KT 30/16 A3001 RMK A01 T02970160  RH  043%=      5-min Rain = 0
KPG1 251704Z 22010KT 30/16 A3001 RMK A01 T02960158  RH  043%=      5-min Rain = 0
KPG1 251705Z 23007KT 29/16 A3001 RMK A01 T02940159  RH  044%=      5-min Rain = 0
KPG1 251706Z 21005KT 29/16 A3001 RMK A01 T02940159  RH  044%=      5-min Rain = 0
KPG1 251707Z 20003KT 29/16 A3001 RMK A01 T02940157  RH  043%=      5-min Rain = 0
KPG1 251708Z 24007KT 29/16 A3001 RMK A01 T02930158  RH  044%=      5-min Rain = 0
KPG1 251709Z 24009KT 29/16 A3001 RMK A01 T02940158  RH  044%=      5-min Rain = 0
KPG1 251710Z 23010KT 30/15 A30 RMK A01 T02950154  RH  043%=      5-min Rain = 0
KPG1 251711Z 22011KT 30/16 A30 RMK A01 T02950156  RH  043%=      5-min Rain = 0
KPG1 251712Z 23009KT 30/16 A30 RMK A01 T02970155  RH  042%=      5-min Rain = 0
KPG1 251713Z 22009KT 30/15 A30 RMK A01 T02960154  RH  042%=      5-min Rain = 0
KPG1 251714Z 21009KT 30/16 A30 RMK A01 T02960155  RH  042%=      5-min Rain = 0
KPG1 251715Z 20008KT 30/16 A30 RMK A01 T02980156  RH  042%=      5-min Rain = 0
KPG1 251716Z 20007KT 30/16 A30 RMK A01 T03000156  RH  042%=      5-min Rain = 0
KPG1 251717Z 21008KT 30/16 A30 RMK A01 T02990159  RH  043%=      5-min Rain = 0
KPG1 251718Z 22010KT 30/16 A30 RMK A01 T03010156  RH  042%=      5-min Rain = 0
KPG1 251719Z 24008KT 30/16 A30 RMK A01 T03030155  RH  041%=      5-min Rain = 0
KPG1 251720Z 22009KT 30/16 A30 RMK A01 T03030155  RH  041%=      5-min Rain = 0
KPG1 251721Z 20007KT 31/16 A30 RMK A01 T03050155  RH  040%=      5-min Rain = 0
KPG1 251722Z 20007KT 31/15 A30 RMK A01 T03060153  RH  040%=      5-min Rain = 0
KPG1 251723Z 20006KT 31/15 A30 RMK A01 T03060152  RH  039%=      5-min Rain = 0
KPG1 251724Z 17006KT 31/16 A30 RMK A01 T03050156  RH  040%=      5-min Rain = 0
KPG1 251725Z 17007KT 31/16 A30 RMK A01 T03070156  RH  040%=      5-min Rain = 0
KPG1 251726Z 19008KT 31/16 A30 RMK A01 T03090156  RH  040%=      5-min Rain = 0
KPG1 251727Z 20007KT 31/16 A30 RMK A01 T03100156  RH  039%=      5-min Rain = 0
KPG1 251728Z 20011KT 31/16 A30 RMK A01 T03110156  RH  039%=      5-min Rain = 0
KPG1 251729Z 22010KT 31/16 A30 RMK A01 T03120155  RH  039%=      5-min Rain = 0
KPG1 251730Z 24012KT 31/16 A2999 RMK A01 T03120155  RH  039%=      5-min Rain = 0
KPG1 251731Z 25011KT 31/15 A2999 RMK A01 T03100153  RH  039%=      5-min Rain = 0
KPG1 251732Z 24010KT 31/15 A2999 RMK A01 T03070153  RH  039%=      5-min Rain = 0
KPG1 251733Z 24010KT 31/15 A2999 RMK A01 T03050151  RH  039%=      5-min Rain = 0
KPG1 251734Z 24007KT 30/15 A2999 RMK A01 T03030153  RH  040%=      5-min Rain = 0
KPG1 251735Z 24008KT 31/15 A2999 RMK A01 T03050154  RH  040%=      5-min Rain = 0
KPG1 251736Z 26006KT 31/16 A2999 RMK A01 T03070158  RH  040%=      5-min Rain = 0
KPG1 251737Z 25012KT 31/16 A2999 RMK A01 T03110157  RH  039%=      5-min Rain = 0
KPG1 251738Z 25008KT 31/15 A2999 RMK A01 T03110154  RH  039%=      5-min Rain = 0
KPG1 251739Z 24007KT 31/16 A30 RMK A01 T03100155  RH  039%=      5-min Rain = 0
KPG1 251740Z 25008KT 31/15 A2999 RMK A01 T03120154  RH  039%=      5-min Rain = 0
KPG1 251741Z 26010KT 31/15 A2999 RMK A01 T03130152  RH  038%=      5-min Rain = 0
KPG1 251742Z 25008KT 31/15 A2999 RMK A01 T03120152  RH  038%=      5-min Rain = 0
KPG1 251743Z 24008KT 31/15 A30 RMK A01 T03120152  RH  038%=      5-min Rain = 0
KPG1 251744Z 22006KT 31/15 A2999 RMK A01 T03120152  RH  038%=      5-min Rain = 0
KPG1 251745Z 19005KT 31/15 A2999 RMK A01 T03120151  RH  038%=      5-min Rain = 0
KPG1 251746Z 19005KT 32/15 A2999 RMK A01 T03150153  RH  038%=      5-min Rain = 0
KPG1 251747Z 24006KT 32/15 A2999 RMK A01 T03180154  RH  037%=      5-min Rain = 0
KPG1 251748Z 22004KT 32/16 A2999 RMK A01 T03180156  RH  038%=      5-min Rain = 0
KPG1 251749Z 22007KT 32/15 A2999 RMK A01 T03170153  RH  037%=      5-min Rain = 0
KPG1 251750Z 22006KT 32/15 A2999 RMK A01 T03170153  RH  037%=      5-min Rain = 0
KPG1 251751Z 22008KT 32/15 A2999 RMK A01 T03160151  RH  037%=      5-min Rain = 0
KPG1 251752Z 22005KT 32/15 A2999 RMK A01 T03150150  RH  037%=      5-min Rain = 0
KPG1 251753Z 20003KT 31/15 A2999 RMK A01 T03130149  RH  037%=      5-min Rain = 0
KPG1 251754Z 23005KT 31/15 A2999 RMK A01 T03130151  RH  038%=      5-min Rain = 0
KPG1 251755Z 23006KT 32/16 A2999 RMK A01 T03170155  RH  038%=      5-min Rain = 0
KPG1 251756Z 22007KT 32/15 A2999 RMK A01 T03210151  RH  036%=      5-min Rain = 0
KPG1 251757Z 18006KT 32/15 A2999 RMK A01 T03210150  RH  036%=      5-min Rain = 0
KPG1 251758Z 19007KT 32/15 A2999 RMK A01 T03210151  RH  036%=      5-min Rain = 0
KPG1 251759Z 19006KT 32/15 A2999 RMK A01 T03200150  RH  036%=      5-min Rain = 0
KPG1 251800Z 23007KT 32/15 A2999 RMK A01 T03190152  RH  037%=      5-min Rain = 0
KPG1 251801Z 24008KT 32/15 A2999 RMK A01 T03200151  RH  036%=      5-min Rain = 0
KPG1 251802Z 26005KT 32/15 A2999 RMK A01 T03180149  RH  036%=      5-min Rain = 0
KPG1 251803Z 26005KT 32/15 A2999 RMK A01 T03150151  RH  037%=      5-min Rain = 0
KPG1 251804Z 24001KT 32/15 A2999 RMK A01 T03150149  RH  037%=      5-min Rain = 0
KPG1 251805Z 23002KT 32/15 A2999 RMK A01 T03150150  RH  037%=      5-min Rain = 0
KPG1 251806Z 22009KT 32/15 A2999 RMK A01 T03180151  RH  037%=      5-min Rain = 0
KPG1 251807Z 21009KT 32/15 A2998 RMK A01 T03200150  RH  036%=      5-min Rain = 0
KPG1 251808Z 21006KT 32/15 A2998 RMK A01 T03190150  RH  036%=      5-min Rain = 0
KPG1 251809Z 19006KT 32/15 A2998 RMK A01 T03180149  RH  036%=      5-min Rain = 0
KPG1 251810Z 18003KT 32/15 A2998 RMK A01 T03160149  RH  036%=      5-min Rain = 0
KPG1 251811Z 16006KT 32/15 A2998 RMK A01 T03180153  RH  037%=      5-min Rain = 0
KPG1 251812Z 14004KT 32/15 A2998 RMK A01 T03190151  RH  036%=      5-min Rain = 0
KPG1 251813Z 15004KT 32/15 A2998 RMK A01 T03200151  RH  036%=      5-min Rain = 0
KPG1 251814Z 19006KT 32/15 A2998 RMK A01 T03210153  RH  036%=      5-min Rain = 0
KPG1 251815Z 21006KT 33/15 A2998 RMK A01 T03260154  RH  036%=      5-min Rain = 0
KPG1 251816Z 21005KT 33/15 A2998 RMK A01 T03280151  RH  035%=      5-min Rain = 0
KPG1 251817Z 20005KT 33/15 A2998 RMK A01 T03260149  RH  035%=      5-min Rain = 0
KPG1 251818Z 21005KT 32/15 A2998 RMK A01 T03240153  RH  036%=      5-min Rain = 0
KPG1 251819Z 24004KT 33/15 A2998 RMK A01 T03260152  RH  035%=      5-min Rain = 0
KPG1 251820Z 26002KT 33/15 A2998 RMK A01 T03250150  RH  035%=      5-min Rain = 0
KPG1 251821Z 15005KT 32/15 A2998 RMK A01 T03230154  RH  036%=      5-min Rain = 0
KPG1 251822Z 12003KT 32/15 A2998 RMK A01 T03240149  RH  035%=      5-min Rain = 0
KPG1 251823Z 13002KT 32/15 A2998 RMK A01 T03220149  RH  035%=      5-min Rain = 0
KPG1 251824Z 19005KT 32/15 A2998 RMK A01 T03210152  RH  036%=      5-min Rain = 0
KPG1 251825Z 21005KT 33/15 A2998 RMK A01 T03250154  RH  036%=      5-min Rain = 0
KPG1 251826Z 21006KT 33/15 A2998 RMK A01 T03280153  RH  035%=      5-min Rain = 0
KPG1 251827Z 22006KT 33/15 A2998 RMK A01 T03280152  RH  035%=      5-min Rain = 0
KPG1 251828Z 25005KT 33/15 A2998 RMK A01 T03260153  RH  035%=      5-min Rain = 0
KPG1 251829Z 26003KT 33/15 A2998 RMK A01 T03250154  RH  036%=      5-min Rain = 0
KPG1 251830Z 27005KT 32/15 A2998 RMK A01 T03240153  RH  036%=      5-min Rain = 0
KPG1 251831Z 23006KT 32/15 A2998 RMK A01 T03230154  RH  036%=      5-min Rain = 0
KPG1 251832Z 22006KT 32/15 A2998 RMK A01 T03240151  RH  035%=      5-min Rain = 0
KPG1 251833Z 22004KT 32/15 A2998 RMK A01 T03230151  RH  035%=      5-min Rain = 0
KPG1 251834Z 20002KT 32/15 A2998 RMK A01 T03220149  RH  035%=      5-min Rain = 0
KPG1 251835Z 12004KT 32/15 A2998 RMK A01 T03210152  RH  036%=      5-min Rain = 0
KPG1 251836Z 11004KT 33/15 A2998 RMK A01 T03250154  RH  036%=      5-min Rain = 0
KPG1 251837Z 12004KT 33/15 A2998 RMK A01 T03270152  RH  035%=      5-min Rain = 0
KPG1 251838Z 12004KT 33/15 A2997 RMK A01 T03260150  RH  035%=      5-min Rain = 0
KPG1 251839Z 11003KT 33/15 A2998 RMK A01 T03250152  RH  035%=      5-min Rain = 0
KPG1 251840Z 12001KT 33/15 A2998 RMK A01 T03250151  RH  035%=      5-min Rain = 0
KPG1 251841Z 04001KT 33/15 A2997 RMK A01 T03250147  RH  034%=      5-min Rain = 0
KPG1 251842Z 02003KT 32/15 A2997 RMK A01 T03230146  RH  034%=      5-min Rain = 0
KPG1 251843Z 11002KT 32/15 A2997 RMK A01 T03210148  RH  035%=      5-min Rain = 0
KPG1 251844Z 13001KT 32/15 A2997 RMK A01 T03210147  RH  035%=      5-min Rain = 0
KPG1 251845Z 07000KT 32/15 A2997 RMK A01 T03220147  RH  035%=      5-min Rain = 0
KPG1 251846Z 06001KT 32/15 A2997 RMK A01 T03240151  RH  035%=      5-min Rain = 0
KPG1 251847Z 09001KT 33/15 A2997 RMK A01 T03260151  RH  035%=      5-min Rain = 0
KPG1 251848Z 08001KT 33/15 A2997 RMK A01 T03290151  RH  034%=      5-min Rain = 0
KPG1 251849Z 04002KT 33/16 A2997 RMK A01 T03320156  RH  035%=      5-min Rain = 0
KPG1 251850Z 09003KT 34/15 A2997 RMK A01 T03350154  RH  034%=      5-min Rain = 0
KPG1 251851Z 09004KT 34/15 A2997 RMK A01 T03350154  RH  034%=      5-min Rain = 0
KPG1 251852Z 13005KT 34/15 A2997 RMK A01 T03350154  RH  034%=      5-min Rain = 0
KPG1 251853Z 14004KT 34/15 A2997 RMK A01 T03360151  RH  033%=      5-min Rain = 0
KPG1 251854Z 16002KT 33/15 A2997 RMK A01 T03320147  RH  033%=      5-min Rain = 0
KPG1 251855Z 18002KT 33/15 A2997 RMK A01 T03290147  RH  033%=      5-min Rain = 0
KPG1 251856Z 17002KT 33/15 A2997 RMK A01 T03280147  RH  034%=      5-min Rain = 0
KPG1 251857Z 15004KT 33/15 A2997 RMK A01 T03270150  RH  034%=      5-min Rain = 0
KPG1 251858Z 16006KT 33/15 A2997 RMK A01 T03290152  RH  035%=      5-min Rain = 0
KPG1 251859Z 17005KT 33/15 A2997 RMK A01 T03320152  RH  034%=      5-min Rain = 0
KPG1 251900Z 17006KT 34/15 A2997 RMK A01 T03350150  RH  033%=      5-min Rain = 0
KPG1 251901Z 16007KT 34/15 A2996 RMK A01 T03350151  RH  033%=      5-min Rain = 0
KPG1 251902Z 15005KT 34/15 A2997 RMK A01 T03360148  RH  032%=      5-min Rain = 0
KPG1 251903Z 16002KT 34/15 A2997 RMK A01 T03350147  RH  032%=      5-min Rain = 0
KPG1 251904Z 13005KT 34/15 A2997 RMK A01 T03350150  RH  033%=      5-min Rain = 0
KPG1 251905Z 11003KT 34/15 A2997 RMK A01 T03360148  RH  032%=      5-min Rain = 0
KPG1 251906Z 12002KT 34/15 A2996 RMK A01 T03350150  RH  033%=      5-min Rain = 0
KPG1 251907Z 09003KT 34/15 A2996 RMK A01 T03350148  RH  033%=      5-min Rain = 0
KPG1 251908Z 08004KT 34/15 A2996 RMK A01 T03370151  RH  033%=      5-min Rain = 0
KPG1 251909Z 06001KT 34/15 A2996 RMK A01 T03370150  RH  032%=      5-min Rain = 0
KPG1 251910Z 16000KT 34/15 A2996 RMK A01 T03370150  RH  032%=      5-min Rain = 0
KPG1 251911Z 22004KT 34/15 A2996 RMK A01 T03400153  RH  033%=      5-min Rain = 0
KPG1 251912Z 23006KT 34/15 A2996 RMK A01 T03420151  RH  032%=      5-min Rain = 0
KPG1 251913Z 24005KT 34/15 A2996 RMK A01 T03410151  RH  032%=      5-min Rain = 0
KPG1 251914Z 24003KT 34/15 A2996 RMK A01 T03400152  RH  032%=      5-min Rain = 0
KPG1 251915Z 20002KT 34/15 A2996 RMK A01 T03400153  RH  033%=      5-min Rain = 0
KPG1 251916Z 14005KT 35/15 A2996 RMK A01 T03450153  RH  032%=      5-min Rain = 0
KPG1 251917Z 14004KT 35/15 A2996 RMK A01 T03460151  RH  031%=      5-min Rain = 0
KPG1 251918Z 17002KT 34/15 A2996 RMK A01 T03440148  RH  031%=      5-min Rain = 0
KPG1 251919Z 17003KT 34/15 A2996 RMK A01 T03430149  RH  031%=      5-min Rain = 0
KPG1 251920Z 14004KT 34/15 A2996 RMK A01 T03440154  RH  032%=      5-min Rain = 0
KPG1 251921Z 12009KT 35/15 A2996 RMK A01 T03470152  RH  031%=      5-min Rain = 0
KPG1 251922Z 12006KT 35/15 A2996 RMK A01 T03460149  RH  031%=      5-min Rain = 0
KPG1 251923Z 08004KT 34/15 A2996 RMK A01 T03410148  RH  031%=      5-min Rain = 0
KPG1 251924Z 11005KT 34/15 A2996 RMK A01 T03390148  RH  032%=      5-min Rain = 0
KPG1 251925Z 13007KT 34/15 A2996 RMK A01 T03390147  RH  032%=      5-min Rain = 0
KPG1 251926Z 12007KT 34/15 A2996 RMK A01 T03400146  RH  031%=      5-min Rain = 0
KPG1 251927Z 10006KT 34/14 A2996 RMK A01 T03390144  RH  031%=      5-min Rain = 0
KPG1 251928Z 07005KT 34/14 A2996 RMK A01 T03370144  RH  031%=      5-min Rain = 0
KPG1 251929Z 04004KT 34/15 A2996 RMK A01 T03390152  RH  032%=      5-min Rain = 0
KPG1 251930Z 07004KT 35/15 A2995 RMK A01 T03460152  RH  031%=      5-min Rain = 0
KPG1 251931Z 06004KT 35/14 A2995 RMK A01 T03460144  RH  030%=      5-min Rain = 0
KPG1 251932Z 04004KT 34/14 A2995 RMK A01 T03430143  RH  030%=      5-min Rain = 0
KPG1 251933Z 03002KT 34/14 A2995 RMK A01 T03410144  RH  031%=      5-min Rain = 0
KPG1 251934Z 12001KT 34/15 A2995 RMK A01 T03430148  RH  031%=      5-min Rain = 0
KPG1 251935Z 20002KT 35/14 A2995 RMK A01 T03470144  RH  030%=      5-min Rain = 0
KPG1 251936Z 18001KT 35/14 A2995 RMK A01 T03480142  RH  029%=      5-min Rain = 0
KPG1 251937Z 12005KT 35/15 A2995 RMK A01 T03490147  RH  030%=      5-min Rain = 0
KPG1 251938Z 11007KT 35/15 A2995 RMK A01 T03500146  RH  029%=      5-min Rain = 0
KPG1 251939Z 13005KT 35/14 A2995 RMK A01 T03470143  RH  030%=      5-min Rain = 0
KPG1 251940Z 12004KT 34/15 A2995 RMK A01 T03440146  RH  031%=      5-min Rain = 0
KPG1 251941Z 12004KT 34/14 A2995 RMK A01 T03440144  RH  030%=      5-min Rain = 0
KPG1 251942Z 06004KT 34/14 A2995 RMK A01 T03430144  RH  030%=      5-min Rain = 0
KPG1 251943Z 01002KT 34/14 A2995 RMK A01 T03420140  RH  030%=      5-min Rain = 0
KPG1 251944Z 35002KT 34/14 A2995 RMK A01 T03430141  RH  030%=      5-min Rain = 0
KPG1 251945Z 35003KT 34/14 A2995 RMK A01 T03440143  RH  030%=      5-min Rain = 0
KPG1 251946Z 34003KT 35/15 A2995 RMK A01 T03450146  RH  030%=      5-min Rain = 0
KPG1 251947Z 00001KT 35/15 A2995 RMK A01 T03460147  RH  030%=      5-min Rain = 0
KPG1 251948Z 07002KT 35/15 A2995 RMK A01 T03500148  RH  030%=      5-min Rain = 0
KPG1 251949Z 09001KT 35/14 A2995 RMK A01 T03510143  RH  029%=      5-min Rain = 0
KPG1 251950Z 06000KT 35/14 A2995 RMK A01 T03500142  RH  029%=      5-min Rain = 0
KPG1 251951Z 36002KT 35/14 A2995 RMK A01 T03500143  RH  029%=      5-min Rain = 0
KPG1 251952Z 32002KT 35/14 A2995 RMK A01 T03520142  RH  028%=      5-min Rain = 0
KPG1 251953Z 32002KT 35/14 A2994 RMK A01 T03510139  RH  028%=      5-min Rain = 0
KPG1 251954Z 33002KT 35/14 A2994 RMK A01 T03480139  RH  029%=      5-min Rain = 0
KPG1 251955Z 01002KT 35/14 A2994 RMK A01 T03470143  RH  029%=      5-min Rain = 0
KPG1 251956Z 08001KT 35/15 A2994 RMK A01 T03500147  RH  030%=      5-min Rain = 0
KPG1 251957Z 17002KT 35/15 A2994 RMK A01 T03540145  RH  029%=      5-min Rain = 0
KPG1 251958Z 19005KT 36/14 A2994 RMK A01 T03560144  RH  028%=      5-min Rain = 0
KPG1 251959Z 21004KT 35/14 A2994 RMK A01 T03530144  RH  029%=      5-min Rain = 0
KPG1 252000Z 20006KT 35/15 A2994 RMK A01 T03530147  RH  029%=      5-min Rain = 0
KPG1 252001Z 20005KT 36/15 A2994 RMK A01 T03550145  RH  029%=      5-min Rain = 0
KPG1 252002Z 21005KT 35/14 A2994 RMK A01 T03540144  RH  028%=      5-min Rain = 0
KPG1 252003Z 21004KT 35/14 A2994 RMK A01 T03510142  RH  029%=      5-min Rain = 0
KPG1 252004Z 24004KT 35/14 A2994 RMK A01 T03480144  RH  029%=      5-min Rain = 0
KPG1 252005Z 25004KT 35/14 A2994 RMK A01 T03480143  RH  029%=      5-min Rain = 0
KPG1 252006Z 24004KT 35/14 A2994 RMK A01 T03480144  RH  030%=      5-min Rain = 0
KPG1 252007Z 25004KT 35/14 A2994 RMK A01 T03480144  RH  030%=      5-min Rain = 0
KPG1 252008Z 21002KT 35/15 A2994 RMK A01 T03490145  RH  029%=      5-min Rain = 0
KPG1 252009Z 18004KT 35/15 A2994 RMK A01 T03530145  RH  029%=      5-min Rain = 0
KPG1 252010Z 15005KT 35/14 A2993 RMK A01 T03540141  RH  028%=      5-min Rain = 0
KPG1 252011Z 12004KT 35/15 A2993 RMK A01 T03520145  RH  029%=      5-min Rain = 0
KPG1 252012Z 13004KT 35/14 A2993 RMK A01 T03530144  RH  029%=      5-min Rain = 0
KPG1 252013Z 11003KT 35/14 A2993 RMK A01 T03530143  RH  029%=      5-min Rain = 0
KPG1 252014Z 10004KT 35/14 A2993 RMK A01 T03520141  RH  028%=      5-min Rain = 0
KPG1 252015Z 11005KT 35/14 A2993 RMK A01 T03510142  RH  028%=      5-min Rain = 0
KPG1 252016Z 09004KT 35/14 A2993 RMK A01 T03490139  RH  028%=      5-min Rain = 0
KPG1 252017Z 10006KT 35/14 A2993 RMK A01 T03470138  RH  028%=      5-min Rain = 0
KPG1 252018Z 09005KT 35/14 A2993 RMK A01 T03470138  RH  029%=      5-min Rain = 0
KPG1 252019Z 13003KT 35/14 A2993 RMK A01 T03480137  RH  028%=      5-min Rain = 0
KPG1 252020Z 12003KT 35/14 A2993 RMK A01 T03500138  RH  028%=      5-min Rain = 0
KPG1 252021Z 12004KT 35/14 A2993 RMK A01 T03510135  RH  027%=      5-min Rain = 0
KPG1 252022Z 13002KT 35/14 A2993 RMK A01 T03500137  RH  028%=      5-min Rain = 0
KPG1 252023Z 09002KT 35/13 A2993 RMK A01 T03500134  RH  027%=      5-min Rain = 0
KPG1 252024Z 09003KT 35/13 A2993 RMK A01 T03500134  RH  027%=      5-min Rain = 0
KPG1 252025Z 01001KT 35/13 A2993 RMK A01 T03500131  RH  027%=      5-min Rain = 0
KPG1 252026Z 02001KT 35/13 A2993 RMK A01 T03480132  RH  027%=      5-min Rain = 0
KPG1 252027Z 05002KT 35/14 A2993 RMK A01 T03500138  RH  028%=      5-min Rain = 0
KPG1 252028Z 12002KT 35/14 A2993 RMK A01 T03540140  RH  028%=      5-min Rain = 0
KPG1 252029Z 14005KT 36/14 A2993 RMK A01 T03580137  RH  027%=      5-min Rain = 0
KPG1 252030Z 13007KT 36/13 A2993 RMK A01 T03600133  RH  026%=      5-min Rain = 0
KPG1 252031Z 14005KT 36/13 A2993 RMK A01 T03590133  RH  026%=      5-min Rain = 0
KPG1 252032Z 12006G11KT 36/14 A2993 RMK A01 T03580135  RH  026%=      5-min Rain = 0
KPG1 252033Z 11006KT 36/13 A2993 RMK A01 T03560134  RH  026%=      5-min Rain = 0
KPG1 252034Z 11002KT 35/13 A2993 RMK A01 T03520128  RH  026%=      5-min Rain = 0
KPG1 252035Z 14003KT 35/13 A2993 RMK A01 T03500132  RH  027%=      5-min Rain = 0
KPG1 252036Z 08004KT 35/14 A2993 RMK A01 T03530140  RH  028%=      5-min Rain = 0
KPG1 252037Z 07007KT 36/13 A2993 RMK A01 T03580134  RH  026%=      5-min Rain = 0
KPG1 252038Z 06007KT 36/13 A2993 RMK A01 T03570134  RH  026%=      5-min Rain = 0
KPG1 252039Z 06007KT 36/13 A2992 RMK A01 T03560134  RH  026%=      5-min Rain = 0
KPG1 252040Z 04007KT 36/13 A2992 RMK A01 T03560131  RH  026%=      5-min Rain = 0
KPG1 252041Z 04004KT 35/13 A2992 RMK A01 T03540129  RH  026%=      5-min Rain = 0
KPG1 252042Z 03005KT 35/13 A2992 RMK A01 T03520130  RH  026%=      5-min Rain = 0
KPG1 252043Z 02007KT 35/13 A2992 RMK A01 T03540130  RH  026%=      5-min Rain = 0
KPG1 252044Z 02006KT 36/13 A2992 RMK A01 T03550128  RH  025%=      5-min Rain = 0
KPG1 252045Z 04006KT 35/13 A2992 RMK A01 T03540127  RH  025%=      5-min Rain = 0
KPG1 252046Z 06005KT 35/13 A2992 RMK A01 T03520128  RH  026%=      5-min Rain = 0
KPG1 252047Z 05005KT 35/13 A2992 RMK A01 T03510126  RH  026%=      5-min Rain = 0
KPG1 252048Z 10003KT 35/14 A2992 RMK A01 T03520136  RH  027%=      5-min Rain = 0
KPG1 252049Z 36003KT 36/14 A2992 RMK A01 T03570136  RH  027%=      5-min Rain = 0
KPG1 252050Z 01006KT 36/14 A2992 RMK A01 T03600135  RH  026%=      5-min Rain = 0
KPG1 252051Z 01004KT 36/13 A2992 RMK A01 T03600132  RH  026%=      5-min Rain = 0
KPG1 252052Z 03006KT 36/13 A2992 RMK A01 T03580133  RH  026%=      5-min Rain = 0
KPG1 252053Z 02003KT 36/14 A2992 RMK A01 T03560135  RH  027%=      5-min Rain = 0
KPG1 252054Z 11006KT 36/13 A2992 RMK A01 T03560131  RH  026%=      5-min Rain = 0
KPG1 252055Z 08009KT 36/13 A2992 RMK A01 T03580130  RH  025%=      5-min Rain = 0
KPG1 252056Z 08010KT 36/13 A2992 RMK A01 T03610133  RH  026%=      5-min Rain = 0
KPG1 252057Z 07007KT 36/13 A2992 RMK A01 T03580131  RH  026%=      5-min Rain = 0
KPG1 252058Z 08005KT 36/13 A2992 RMK A01 T03560133  RH  026%=      5-min Rain = 0
KPG1 252059Z 07005KT 36/13 A2992 RMK A01 T03550132  RH  026%=      5-min Rain = 0
KPG1 252100Z 05006KT 36/13 A2992 RMK A01 T03560134  RH  026%=      5-min Rain = 0
KPG1 252101Z 07007KT 36/13 A2992 RMK A01 T03550133  RH  026%=      5-min Rain = 0
KPG1 252102Z 05006KT 35/13 A2992 RMK A01 T03540133  RH  026%=      5-min Rain = 0
KPG1 252103Z 06008KT 35/14 A2991 RMK A01 T03540141  RH  028%=      5-min Rain = 0
KPG1 252104Z 10006KT 36/14 A2992 RMK A01 T03580141  RH  027%=      5-min Rain = 0
KPG1 252105Z 08010KT 36/14 A2992 RMK A01 T03590139  RH  027%=      5-min Rain = 0
KPG1 252106Z 07009KT 36/13 A2992 RMK A01 T03560132  RH  026%=      5-min Rain = 0
KPG1 252107Z 08006KT 35/13 A2991 RMK A01 T03530132  RH  027%=      5-min Rain = 0
KPG1 252108Z 10009KT 35/14 A2991 RMK A01 T03530136  RH  027%=      5-min Rain = 0
KPG1 252109Z 09010KT 35/13 A2991 RMK A01 T03540132  RH  026%=      5-min Rain = 0
KPG1 252110Z 08010KT 35/13 A2991 RMK A01 T03530134  RH  027%=      5-min Rain = 0
KPG1 252111Z 06014KT 36/14 A2991 RMK A01 T03550135  RH  027%=      5-min Rain = 0
KPG1 252112Z 05008G13KT 36/14 A2991 RMK A01 T03550135  RH  027%=      5-min Rain = 0
KPG1 252113Z 06006KT 36/13 A2991 RMK A01 T03560134  RH  026%=      5-min Rain = 0
KPG1 252114Z 08006KT 36/13 A2991 RMK A01 T03570134  RH  026%=      5-min Rain = 0
KPG1 252115Z 09010KT 36/13 A2991 RMK A01 T03560133  RH  026%=      5-min Rain = 0
KPG1 252116Z 07007KT 36/13 A2991 RMK A01 T03550131  RH  026%=      5-min Rain = 0
KPG1 252117Z 07007KT 36/13 A2991 RMK A01 T03550131  RH  026%=      5-min Rain = 0
KPG1 252118Z 10006KT 36/13 A2991 RMK A01 T03560134  RH  026%=      5-min Rain = 0
KPG1 252119Z 09008KT 36/13 A2991 RMK A01 T03590133  RH  026%=      5-min Rain = 0
KPG1 252120Z 04007KT 36/12 A2991 RMK A01 T03590124  RH  024%=      5-min Rain = 0
KPG1 252121Z 05008KT 36/13 A2991 RMK A01 T03570126  RH  025%=      5-min Rain = 0
KPG1 252122Z 07006KT 36/13 A2991 RMK A01 T03580131  RH  026%=      5-min Rain = 0
KPG1 252123Z 08008KT 36/13 A2991 RMK A01 T03560130  RH  026%=      5-min Rain = 0
KPG1 252124Z 06010G16KT 35/13 A2991 RMK A01 T03540132  RH  026%=      5-min Rain = 0
KPG1 252125Z 05015KT 35/13 A2991 RMK A01 T03540131  RH  026%=      5-min Rain = 0
KPG1 252126Z 05014KT 35/13 A2991 RMK A01 T03540127  RH  025%=      5-min Rain = 0
KPG1 252127Z 06012KT 35/13 A2991 RMK A01 T03540127  RH  026%=      5-min Rain = 0
KPG1 252128Z 06010KT 35/13 A2991 RMK A01 T03530131  RH  026%=      5-min Rain = 0
KPG1 252129Z 06009KT 35/13 A2991 RMK A01 T03540130  RH  026%=      5-min Rain = 0
KPG1 252130Z 05009G14KT 36/13 A2991 RMK A01 T03560133  RH  026%=      5-min Rain = 0
KPG1 252131Z 07012KT 36/13 A2991 RMK A01 T03580128  RH  025%=      5-min Rain = 0
KPG1 252132Z 07007KT 36/13 A2991 RMK A01 T03550128  RH  026%=      5-min Rain = 0
KPG1 252133Z 11006KT 36/13 A2991 RMK A01 T03550125  RH  025%=      5-min Rain = 0
KPG1 252134Z 11011KT 36/13 A2991 RMK A01 T03560128  RH  025%=      5-min Rain = 0
KPG1 252135Z 11007KT 36/13 A2991 RMK A01 T03570127  RH  025%=      5-min Rain = 0
KPG1 252136Z 09009KT 36/12 A2991 RMK A01 T03570122  RH  024%=      5-min Rain = 0
KPG1 252137Z 07005KT 36/12 A2991 RMK A01 T03560118  RH  024%=      5-min Rain = 0
KPG1 252138Z 05003G9KT 36/11 A2991 RMK A01 T03550114  RH  023%=      5-min Rain = 0
KPG1 252139Z 06011KT 36/12 A2991 RMK A01 T03560119  RH  024%=      5-min Rain = 0
KPG1 252140Z 06010KT 36/11 A2991 RMK A01 T03570114  RH  023%=      5-min Rain = 0
KPG1 252141Z 06006KT 36/12 A2991 RMK A01 T03570118  RH  024%=      5-min Rain = 0
KPG1 252142Z 08006KT 36/13 A2991 RMK A01 T03590125  RH  024%=      5-min Rain = 0
KPG1 252143Z 07010KT 36/13 A299 RMK A01 T03630126  RH  024%=      5-min Rain = 0
KPG1 252144Z 06010KT 36/13 A299 RMK A01 T03630126  RH  024%=      5-min Rain = 0
KPG1 252145Z 05007KT 36/12 A299 RMK A01 T03600120  RH  024%=      5-min Rain = 0
KPG1 252146Z 06005KT 36/12 A299 RMK A01 T03560123  RH  024%=      5-min Rain = 0
KPG1 252147Z 09008KT 36/13 A299 RMK A01 T03590128  RH  025%=      5-min Rain = 0
KPG1 252148Z 12009KT 36/13 A299 RMK A01 T03620127  RH  024%=      5-min Rain = 0
KPG1 252149Z 10005KT 36/12 A299 RMK A01 T03590121  RH  024%=      5-min Rain = 0
KPG1 252150Z 14004KT 36/12 A299 RMK A01 T03550118  RH  024%=      5-min Rain = 0
KPG1 252151Z 13006G11KT 35/12 A299 RMK A01 T03540117  RH  024%=      5-min Rain = 0
KPG1 252152Z 11006KT 36/12 A299 RMK A01 T03560120  RH  024%=      5-min Rain = 0
KPG1 252153Z 14005G12KT 36/12 A299 RMK A01 T03580123  RH  024%=      5-min Rain = 0
KPG1 252154Z 12008G14KT 36/13 A299 RMK A01 T03600128  RH  025%=      5-min Rain = 0
KPG1 252155Z 13011KT 36/13 A299 RMK A01 T03630129  RH  025%=      5-min Rain = 0
KPG1 252156Z 13009KT 36/13 A299 RMK A01 T03630126  RH  024%=      5-min Rain = 0
KPG1 252157Z 10004KT 36/12 A299 RMK A01 T03600121  RH  024%=      5-min Rain = 0
KPG1 252158Z 10003KT 36/12 A299 RMK A01 T03580118  RH  024%=      5-min Rain = 0
KPG1 252159Z 11005G10KT 36/12 A299 RMK A01 T03570123  RH  024%=      5-min Rain = 0
KPG1 252200Z 07007G13KT 36/13 A299 RMK A01 T03570128  RH  025%=      5-min Rain = 0
KPG1 252201Z 07011G17KT 36/13 A299 RMK A01 T03600129  RH  025%=      5-min Rain = 0
KPG1 252202Z 08012KT 36/12 A299 RMK A01 T03620123  RH  024%=      5-min Rain = 0
KPG1 252203Z 05011KT 36/12 A299 RMK A01 T03590116  RH  023%=      5-min Rain = 0
KPG1 252204Z 06009KT 36/12 A299 RMK A01 T03570115  RH  023%=      5-min Rain = 0
KPG1 252205Z 07010KT 36/13 A299 RMK A01 T03580128  RH  025%=      5-min Rain = 0
KPG1 252206Z 06010KT 36/13 A299 RMK A01 T03590134  RH  026%=      5-min Rain = 0
KPG1 252207Z 08009KT 36/14 A299 RMK A01 T03600135  RH  026%=      5-min Rain = 0
KPG1 252208Z 08005KT 36/13 A299 RMK A01 T03620134  RH  025%=      5-min Rain = 0
KPG1 252209Z 08008KT 36/13 A299 RMK A01 T03620134  RH  026%=      5-min Rain = 0
KPG1 252210Z 06011G16KT 36/14 A299 RMK A01 T03610135  RH  026%=      5-min Rain = 0
KPG1 252211Z 06013KT 36/14 A299 RMK A01 T03600135  RH  026%=      5-min Rain = 0
KPG1 252212Z 06012KT 36/13 A299 RMK A01 T03590133  RH  026%=      5-min Rain = 0
KPG1 252213Z 07013KT 36/13 A299 RMK A01 T03570132  RH  026%=      5-min Rain = 0
KPG1 252214Z 07010KT 36/13 A299 RMK A01 T03550130  RH  026%=      5-min Rain = 0
KPG1 252215Z 07011G16KT 35/13 A299 RMK A01 T03540130  RH  026%=      5-min Rain = 0
KPG1 252216Z 08012G19KT 36/13 A299 RMK A01 T03550132  RH  026%=      5-min Rain = 0
KPG1 252217Z 09010G16KT 36/13 A299 RMK A01 T03570126  RH  025%=      5-min Rain = 0
KPG1 252218Z 09007KT 36/13 A299 RMK A01 T03550127  RH  025%=      5-min Rain = 0
KPG1 252219Z 07009KT 36/13 A299 RMK A01 T03550128  RH  025%=      5-min Rain = 0
KPG1 252220Z 06010G15KT 36/13 A299 RMK A01 T03570129  RH  025%=      5-min Rain = 0
KPG1 252221Z 06009G14KT 36/13 A299 RMK A01 T03590128  RH  025%=      5-min Rain = 0
KPG1 252222Z 06010G15KT 36/12 A299 RMK A01 T03590124  RH  024%=      5-min Rain = 0
KPG1 252223Z 08011KT 36/12 A299 RMK A01 T03580124  RH  025%=      5-min Rain = 0
KPG1 252224Z 06011KT 36/13 A299 RMK A01 T03580125  RH  025%=      5-min Rain = 0
KPG1 252225Z 08012KT 36/12 A299 RMK A01 T03590124  RH  024%=      5-min Rain = 0
KPG1 252226Z 09009KT 36/13 A299 RMK A01 T03600127  RH  025%=      5-min Rain = 0
KPG1 252227Z 06011KT 36/12 A299 RMK A01 T03590121  RH  024%=      5-min Rain = 0
KPG1 252228Z 07012KT 36/12 A299 RMK A01 T03560123  RH  025%=      5-min Rain = 0
KPG1 252229Z 06013KT 36/12 A299 RMK A01 T03560121  RH  024%=      5-min Rain = 0
KPG1 252230Z 05010KT 36/12 A299 RMK A01 T03550123  RH  025%=      5-min Rain = 0
KPG1 252231Z 03011KT 36/12 A299 RMK A01 T03550122  RH  025%=      5-min Rain = 0
KPG1 252232Z 06015KT 36/12 A299 RMK A01 T03550119  RH  024%=      5-min Rain = 0
KPG1 252233Z 07013KT 36/12 A299 RMK A01 T03560119  RH  024%=      5-min Rain = 0
KPG1 252234Z 06014KT 35/12 A299 RMK A01 T03540121  RH  025%=      5-min Rain = 0
KPG1 252235Z 06012KT 36/12 A299 RMK A01 T03550121  RH  024%=      5-min Rain = 0
KPG1 252236Z 07014KT 36/12 A299 RMK A01 T03570122  RH  024%=      5-min Rain = 0
KPG1 252237Z 07013KT 36/12 A299 RMK A01 T03570120  RH  024%=      5-min Rain = 0
KPG1 252238Z 07012KT 36/12 A299 RMK A01 T03560123  RH  025%=      5-min Rain = 0
KPG1 252239Z 07011KT 36/13 A299 RMK A01 T03560125  RH  025%=      5-min Rain = 0
KPG1 252240Z 07009KT 36/12 A299 RMK A01 T03570123  RH  024%=      5-min Rain = 0
KPG1 252241Z 04007KT 36/13 A299 RMK A01 T03570126  RH  025%=      5-min Rain = 0
KPG1 252242Z 04009G14KT 36/13 A299 RMK A01 T03580126  RH  025%=      5-min Rain = 0
KPG1 252243Z 05014KT 36/12 A299 RMK A01 T03590121  RH  024%=      5-min Rain = 0
KPG1 252244Z 07012KT 36/12 A299 RMK A01 T03570119  RH  024%=      5-min Rain = 0
KPG1 252245Z 09014KT 36/12 A299 RMK A01 T03570116  RH  023%=      5-min Rain = 0
KPG1 252246Z 08013KT 36/11 A299 RMK A01 T03550113  RH  023%=      5-min Rain = 0
KPG1 252247Z 08012KT 35/11 A299 RMK A01 T03540114  RH  023%=      5-min Rain = 0
KPG1 252248Z 08010KT 35/11 A299 RMK A01 T03540114  RH  023%=      5-min Rain = 0
KPG1 252249Z 07011KT 35/12 A299 RMK A01 T03530116  RH  024%=      5-min Rain = 0
KPG1 252250Z 08011KT 35/12 A299 RMK A01 T03530119  RH  024%=      5-min Rain = 0
KPG1 252251Z 08010KT 35/12 A299 RMK A01 T03540121  RH  025%=      5-min Rain = 0
KPG1 252252Z 09008KT 35/12 A299 RMK A01 T03540119  RH  024%=      5-min Rain = 0
KPG1 252253Z 08008KT 35/12 A299 RMK A01 T03540118  RH  024%=      5-min Rain = 0
KPG1 252254Z 08011KT 35/12 A299 RMK A01 T03540124  RH  025%=      5-min Rain = 0
KPG1 252255Z 08010KT 36/13 A299 RMK A01 T03570129  RH  025%=      5-min Rain = 0
KPG1 252256Z 09008KT 36/13 A299 RMK A01 T03560134  RH  026%=      5-min Rain = 0
KPG1 252257Z 07014G19KT 36/14 A299 RMK A01 T03560138  RH  027%=      5-min Rain = 0
KPG1 252258Z 05014KT 35/14 A299 RMK A01 T03520140  RH  028%=      5-min Rain = 0
KPG1 252259Z 04010KT 35/14 A299 RMK A01 T03500141  RH  028%=      5-min Rain = 0
KPG1 252300Z 06010KT 35/14 A299 RMK A01 T03490141  RH  029%=      5-min Rain = 0
KPG1 252301Z 06017KT 35/14 A299 RMK A01 T03500141  RH  029%=      5-min Rain = 0
KPG1 252302Z 06018KT 35/14 A299 RMK A01 T03500138  RH  028%=      5-min Rain = 0
KPG1 252303Z 06016KT 35/14 A299 RMK A01 T03500138  RH  028%=      5-min Rain = 0
KPG1 252304Z 07012KT 35/14 A299 RMK A01 T03500139  RH  028%=      5-min Rain = 0
KPG1 252305Z 07010G16KT 35/14 A299 RMK A01 T03490140  RH  029%=      5-min Rain = 0
KPG1 252306Z 06016G21KT 35/14 A299 RMK A01 T03490141  RH  029%=      5-min Rain = 0
KPG1 252307Z 07017KT 35/14 A299 RMK A01 T03490142  RH  029%=      5-min Rain = 0
KPG1 252308Z 07014KT 35/14 A2989 RMK A01 T03480141  RH  029%=      5-min Rain = 0
KPG1 252309Z 05013KT 35/14 A299 RMK A01 T03470142  RH  029%=      5-min Rain = 0
KPG1 252310Z 04011G16KT 35/14 A2989 RMK A01 T03490142  RH  029%=      5-min Rain = 0
KPG1 252311Z 04014KT 35/14 A299 RMK A01 T03490140  RH  029%=      5-min Rain = 0
KPG1 252312Z 02017KT 35/14 A2989 RMK A01 T03490140  RH  028%=      5-min Rain = 0
KPG1 252313Z 04014G20KT 35/14 A2989 RMK A01 T03480140  RH  029%=      5-min Rain = 0
KPG1 252314Z 05016KT 35/14 A299 RMK A01 T03480139  RH  029%=      5-min Rain = 0
KPG1 252315Z 06012KT 35/14 A299 RMK A01 T03470139  RH  029%=      5-min Rain = 0
KPG1 252316Z 07012G17KT 35/14 A299 RMK A01 T03470142  RH  029%=      5-min Rain = 0
KPG1 252317Z 07014KT 35/14 A2989 RMK A01 T03480140  RH  029%=      5-min Rain = 0
KPG1 252318Z 06012KT 35/14 A299 RMK A01 T03480140  RH  029%=      5-min Rain = 0
KPG1 252319Z 06013KT 35/14 A2989 RMK A01 T03470140  RH  029%=      5-min Rain = 0
KPG1 252320Z 06014G19KT 35/14 A2989 RMK A01 T03470139  RH  029%=      5-min Rain = 0
KPG1 252321Z 05014G19KT 35/14 A2989 RMK A01 T03470141  RH  029%=      5-min Rain = 0
KPG1 252322Z 08015KT 35/14 A2989 RMK A01 T03480141  RH  029%=      5-min Rain = 0
KPG1 252323Z 09012G19KT 35/14 A299 RMK A01 T03480139  RH  029%=      5-min Rain = 0
KPG1 252324Z 05008KT 35/14 A299 RMK A01 T03470143  RH  029%=      5-min Rain = 0
KPG1 252325Z 06014G20KT 35/14 A299 RMK A01 T03480141  RH  029%=      5-min Rain = 0
KPG1 252326Z 05016KT 35/14 A2989 RMK A01 T03470137  RH  028%=      5-min Rain = 0
KPG1 252327Z 05012KT 34/14 A2989 RMK A01 T03440137  RH  029%=      5-min Rain = 0
KPG1 252328Z 06013KT 34/14 A2989 RMK A01 T03440139  RH  029%=      5-min Rain = 0
KPG1 252329Z 06012KT 35/14 A2989 RMK A01 T03450137  RH  029%=      5-min Rain = 0
KPG1 252330Z 04010KT 34/14 A299 RMK A01 T03440138  RH  029%=      5-min Rain = 0
KPG1 252331Z 06013KT 35/14 A299 RMK A01 T03460139  RH  029%=      5-min Rain = 0
KPG1 252332Z 06013KT 35/14 A299 RMK A01 T03460136  RH  028%=      5-min Rain = 0
KPG1 252333Z 05011KT 34/14 A299 RMK A01 T03440135  RH  028%=      5-min Rain = 0
KPG1 252334Z 06014G19KT 34/14 A299 RMK A01 T03430136  RH  029%=      5-min Rain = 0
KPG1 252335Z 05012KT 34/14 A299 RMK A01 T03440137  RH  029%=      5-min Rain = 0
KPG1 252336Z 06009KT 35/14 A299 RMK A01 T03450141  RH  029%=      5-min Rain = 0
KPG1 252337Z 05018KT 35/14 A2989 RMK A01 T03470139  RH  029%=      5-min Rain = 0
KPG1 252338Z 06017G22KT 35/14 A2989 RMK A01 T03460137  RH  029%=      5-min Rain = 0
KPG1 252339Z 06015KT 34/14 A299 RMK A01 T03440137  RH  029%=      5-min Rain = 0
KPG1 252340Z 06018KT 34/14 A299 RMK A01 T03430136  RH  029%=      5-min Rain = 0
KPG1 252341Z 06018KT 34/14 A2989 RMK A01 T03420135  RH  029%=      5-min Rain = 0
KPG1 252342Z 06017KT 34/14 A2989 RMK A01 T03410136  RH  029%=      5-min Rain = 0
KPG1 252343Z 06019KT 34/14 A2989 RMK A01 T03400136  RH  029%=      5-min Rain = 0
KPG1 252344Z 06015KT 34/14 A299 RMK A01 T03390136  RH  029%=      5-min Rain = 0
KPG1 252345Z 06016KT 34/14 A299 RMK A01 T03400137  RH  030%=      5-min Rain = 0
KPG1 252346Z 06015G20KT 34/14 A2989 RMK A01 T03390136  RH  029%=      5-min Rain = 0
KPG1 252347Z 04012KT 34/14 A299 RMK A01 T03400138  RH  030%=      5-min Rain = 0
KPG1 252348Z 06018KT 34/14 A299 RMK A01 T03410138  RH  030%=      5-min Rain = 0
KPG1 252349Z 06019KT 34/14 A299 RMK A01 T03410138  RH  029%=      5-min Rain = 0
KPG1 252350Z 06015G20KT 34/14 A299 RMK A01 T03400136  RH  029%=      5-min Rain = 0
KPG1 252351Z 06015KT 34/14 A299 RMK A01 T03380137  RH  030%=      5-min Rain = 0
KPG1 252352Z 06013KT 34/14 A299 RMK A01 T03390137  RH  030%=      5-min Rain = 0
KPG1 252353Z 05011KT 34/14 A299 RMK A01 T03390137  RH  030%=      5-min Rain = 0
KPG1 252354Z 05013KT 34/14 A299 RMK A01 T03400136  RH  029%=      5-min Rain = 0
KPG1 252355Z 05012KT 34/14 A299 RMK A01 T03400137  RH  029%=      5-min Rain = 0
KPG1 252356Z 06013KT 34/14 A299 RMK A01 T03400136  RH  029%=      5-min Rain = 0
KPG1 252357Z 05014KT 34/13 A299 RMK A01 T03400134  RH  029%=      5-min Rain = 0
KPG1 252358Z 05014G19KT 34/14 A299 RMK A01 T03390135  RH  029%=      5-min Rain = 0
KPG1 252359Z 06016KT 34/14 A299 RMK A01 T03400135  RH  029%=      5-min Rain = 0
KPG1 260000Z 06017G22KT 34/13 A299 RMK A01 T03390134  RH  029%=      5-min Rain = 0
KPG1 260001Z 06017KT 34/13 A299 RMK A01 T03390134  RH  029%=      5-min Rain = 0
KPG1 260002Z 07015G23KT 34/13 A299 RMK A01 T03390134  RH  029%=      5-min Rain = 0
KPG1 260003Z 05014KT 34/13 A299 RMK A01 T03380133  RH  029%=      5-min Rain = 0
KPG1 260004Z 06018KT 34/13 A299 RMK A01 T03380133  RH  029%=      5-min Rain = 0
KPG1 260005Z 07016KT 34/13 A299 RMK A01 T03380132  RH  029%=      5-min Rain = 0
KPG1 260006Z 06014KT 34/13 A299 RMK A01 T03370132  RH  029%=      5-min Rain = 0
KPG1 260007Z 05012KT 34/13 A299 RMK A01 T03370133  RH  029%=      5-min Rain = 0
KPG1 260008Z 06014KT 34/13 A299 RMK A01 T03380133  RH  029%=      5-min Rain = 0
KPG1 260009Z 06017KT 34/13 A299 RMK A01 T03380132  RH  029%=      5-min Rain = 0
KPG1 260010Z 06016KT 34/13 A299 RMK A01 T03370131  RH  029%=      5-min Rain = 0
KPG1 260011Z 06014KT 34/13 A299 RMK A01 T03360132  RH  029%=      5-min Rain = 0
KPG1 260012Z 06014G20KT 34/13 A299 RMK A01 T03360133  RH  029%=      5-min Rain = 0
KPG1 260013Z 05013KT 34/13 A299 RMK A01 T03370133  RH  029%=      5-min Rain = 0
KPG1 260014Z 07012KT 34/13 A299 RMK A01 T03370133  RH  029%=      5-min Rain = 0
KPG1 260015Z 06017G22KT 34/13 A299 RMK A01 T03380132  RH  029%=      5-min Rain = 0
KPG1 260016Z 06016KT 34/13 A299 RMK A01 T03370132  RH  029%=      5-min Rain = 0
KPG1 260017Z 06014KT 34/13 A299 RMK A01 T03370133  RH  029%=      5-min Rain = 0
KPG1 260018Z 06015KT 34/13 A299 RMK A01 T03370133  RH  029%=      5-min Rain = 0
KPG1 260019Z 05016KT 34/13 A299 RMK A01 T03360132  RH  029%=      5-min Rain = 0
KPG1 260020Z 06016G22KT 34/13 A299 RMK A01 T03350132  RH  029%=      5-min Rain = 0
KPG1 260021Z 05016KT 34/13 A299 RMK A01 T03350132  RH  029%=      5-min Rain = 0
KPG1 260022Z 07013KT 34/13 A299 RMK A01 T03350133  RH  030%=      5-min Rain = 0
KPG1 260023Z 06016KT 33/13 A299 RMK A01 T03340133  RH  030%=      5-min Rain = 0
KPG1 260024Z 06015KT 33/13 A299 RMK A01 T03340133  RH  030%=      5-min Rain = 0
KPG1 260025Z 05009KT 33/13 A299 RMK A01 T03340134  RH  030%=      5-min Rain = 0
KPG1 260026Z 05014KT 33/14 A299 RMK A01 T03340135  RH  030%=      5-min Rain = 0
KPG1 260027Z 05016KT 33/13 A299 RMK A01 T03340134  RH  030%=      5-min Rain = 0
KPG1 260028Z 05016KT 33/13 A2991 RMK A01 T03340133  RH  030%=      5-min Rain = 0
KPG1 260029Z 06014KT 33/13 A2991 RMK A01 T03340132  RH  029%=      5-min Rain = 0
KPG1 260030Z 05011KT 33/13 A2991 RMK A01 T03330132  RH  030%=      5-min Rain = 0
KPG1 260031Z 06011KT 33/13 A2991 RMK A01 T03340132  RH  030%=      5-min Rain = 0
KPG1 260032Z 04008KT 33/13 A2991 RMK A01 T03330132  RH  030%=      5-min Rain = 0
KPG1 260033Z 05013KT 33/13 A2991 RMK A01 T03330133  RH  030%=      5-min Rain = 0
KPG1 260034Z 06015KT 33/13 A2991 RMK A01 T03330132  RH  030%=      5-min Rain = 0
KPG1 260035Z 05011G16KT 33/13 A2991 RMK A01 T03330133  RH  030%=      5-min Rain = 0
KPG1 260036Z 06014KT 33/13 A2991 RMK A01 T03340133  RH  030%=      5-min Rain = 0
KPG1 260037Z 07014KT 33/13 A2991 RMK A01 T03340132  RH  030%=      5-min Rain = 0
KPG1 260038Z 06014KT 33/13 A2991 RMK A01 T03340132  RH  029%=      5-min Rain = 0
KPG1 260039Z 06018G23KT 33/13 A2991 RMK A01 T03340131  RH  029%=      5-min Rain = 0
KPG1 260040Z 06016G21KT 33/13 A2991 RMK A01 T03330131  RH  029%=      5-min Rain = 0
KPG1 260041Z 06014KT 33/13 A2991 RMK A01 T03320131  RH  030%=      5-min Rain = 0
KPG1 260042Z 04013KT 33/13 A2991 RMK A01 T03320131  RH  030%=      5-min Rain = 0
KPG1 260043Z 04013KT 33/13 A2991 RMK A01 T03320132  RH  030%=      5-min Rain = 0
KPG1 260044Z 03015G20KT 33/13 A2991 RMK A01 T03320132  RH  030%=      5-min Rain = 0
KPG1 260045Z 04012G18KT 33/13 A2991 RMK A01 T03320132  RH  030%=      5-min Rain = 0
KPG1 260046Z 04015KT 33/13 A2991 RMK A01 T03310134  RH  030%=      5-min Rain = 0
KPG1 260047Z 06012KT 33/13 A2991 RMK A01 T03310134  RH  030%=      5-min Rain = 0
KPG1 260048Z 04013G18KT 33/14 A2991 RMK A01 T03310135  RH  031%=      5-min Rain = 0
KPG1 260049Z 03014G19KT 33/13 A2991 RMK A01 T03310134  RH  030%=      5-min Rain = 0
KPG1 260050Z 04014KT 33/13 A2991 RMK A01 T03300134  RH  031%=      5-min Rain = 0
KPG1 260051Z 04016KT 33/14 A2992 RMK A01 T03300135  RH  031%=      5-min Rain = 0
KPG1 260052Z 05015G20KT 33/13 A2992 RMK A01 T03300134  RH  031%=      5-min Rain = 0
KPG1 260053Z 04013KT 33/14 A2992 RMK A01 T03290135  RH  031%=      5-min Rain = 0
KPG1 260054Z 04014KT 33/14 A2992 RMK A01 T03290135  RH  031%=      5-min Rain = 0
KPG1 260055Z 04013G18KT 33/14 A2992 RMK A01 T03290135  RH  031%=      5-min Rain = 0
KPG1 260056Z 06012G18KT 33/14 A2992 RMK A01 T03290136  RH  031%=      5-min Rain = 0
KPG1 260057Z 06016KT 33/14 A2992 RMK A01 T03290137  RH  031%=      5-min Rain = 0
KPG1 260058Z 07017KT 33/14 A2992 RMK A01 T03280136  RH  031%=      5-min Rain = 0
KPG1 260059Z 05015G20KT 33/14 A2992 RMK A01 T03280136  RH  031%=      5-min Rain = 0
KPG1 260100Z 06015KT 33/14 A2992 RMK A01 T03270135  RH  031%=      5-min Rain = 0
KPG1 260101Z 07016KT 33/14 A2992 RMK A01 T03270136  RH  032%=      5-min Rain = 0
KPG1 260102Z 06013KT 33/14 A2992 RMK A01 T03260136  RH  032%=      5-min Rain = 0
KPG1 260103Z 06014G19KT 33/14 A2992 RMK A01 T03260136  RH  032%=      5-min Rain = 0
KPG1 260104Z 05013KT 33/14 A2992 RMK A01 T03250137  RH  032%=      5-min Rain = 0
KPG1 260105Z 04014KT 32/14 A2992 RMK A01 T03240137  RH  032%=      5-min Rain = 0
KPG1 260106Z 05011KT 32/14 A2992 RMK A01 T03240137  RH  032%=      5-min Rain = 0
KPG1 260107Z 04012KT 32/14 A2992 RMK A01 T03240137  RH  032%=      5-min Rain = 0
KPG1 260108Z 07013KT 32/14 A2992 RMK A01 T03230138  RH  032%=      5-min Rain = 0
KPG1 260109Z 05011KT 32/14 A2992 RMK A01 T03230138  RH  032%=      5-min Rain = 0
KPG1 260110Z 04013KT 32/14 A2992 RMK A01 T03230138  RH  033%=      5-min Rain = 0
KPG1 260111Z 06014KT 32/14 A2992 RMK A01 T03230137  RH  032%=      5-min Rain = 0
KPG1 260112Z 05012KT 32/14 A2992 RMK A01 T03220137  RH  033%=      5-min Rain = 0
KPG1 260113Z 06013KT 32/14 A2992 RMK A01 T03220138  RH  033%=      5-min Rain = 0
KPG1 260114Z 05011KT 32/14 A2992 RMK A01 T03220137  RH  033%=      5-min Rain = 0
KPG1 260115Z 04014KT 32/14 A2992 RMK A01 T03210137  RH  033%=      5-min Rain = 0
KPG1 260116Z 03013KT 32/14 A2992 RMK A01 T03200137  RH  033%=      5-min Rain = 0
KPG1 260117Z 04014KT 32/14 A2992 RMK A01 T03200138  RH  033%=      5-min Rain = 0
KPG1 260118Z 05015KT 32/14 A2992 RMK A01 T03190139  RH  034%=      5-min Rain = 0
KPG1 260119Z 06014KT 32/14 A2992 RMK A01 T03180140  RH  034%=      5-min Rain = 0
KPG1 260120Z 05011KT 32/14 A2992 RMK A01 T03180141  RH  034%=      5-min Rain = 0
KPG1 260121Z 06013KT 32/14 A2992 RMK A01 T03170142  RH  034%=      5-min Rain = 0
KPG1 260122Z 06013G18KT 32/14 A2992 RMK A01 T03170142  RH  035%=      5-min Rain = 0
KPG1 260123Z 05013KT 32/14 A2992 RMK A01 T03160143  RH  035%=      5-min Rain = 0
KPG1 260124Z 04012KT 32/14 A2992 RMK A01 T03150143  RH  035%=      5-min Rain = 0
KPG1 260125Z 04014KT 32/14 A2992 RMK A01 T03150143  RH  035%=      5-min Rain = 0
KPG1 260126Z 03011KT 31/14 A2992 RMK A01 T03140143  RH  035%=      5-min Rain = 0
KPG1 260127Z 03012KT 31/14 A2992 RMK A01 T03130144  RH  036%=      5-min Rain = 0
KPG1 260128Z 03014KT 31/15 A2993 RMK A01 T03130145  RH  036%=      5-min Rain = 0
KPG1 260129Z 02015KT 31/15 A2993 RMK A01 T03120145  RH  036%=      5-min Rain = 0
KPG1 260130Z 03017G24KT 31/15 A2993 RMK A01 T03120146  RH  036%=      5-min Rain = 0
KPG1 260131Z 03015KT 31/15 A2993 RMK A01 T03110146  RH  037%=      5-min Rain = 0
KPG1 260132Z 03016KT 31/15 A2993 RMK A01 T03110147  RH  037%=      5-min Rain = 0
KPG1 260133Z 02016G21KT 31/15 A2993 RMK A01 T03110147  RH  037%=      5-min Rain = 0
KPG1 260134Z 02018KT 31/15 A2993 RMK A01 T03110148  RH  037%=      5-min Rain = 0
KPG1 260135Z 03014KT 31/15 A2993 RMK A01 T03100148  RH  037%=      5-min Rain = 0
KPG1 260136Z 03016KT 31/15 A2993 RMK A01 T03100149  RH  038%=      5-min Rain = 0
KPG1 260137Z 03014KT 31/15 A2993 RMK A01 T03100149  RH  038%=      5-min Rain = 0
KPG1 260138Z 02015KT 31/15 A2993 RMK A01 T03090150  RH  038%=      5-min Rain = 0
KPG1 260139Z 03014KT 31/15 A2993 RMK A01 T03090151  RH  038%=      5-min Rain = 0
KPG1 260140Z 03015KT 31/15 A2993 RMK A01 T03080151  RH  039%=      5-min Rain = 0
KPG1 260141Z 03017KT 31/15 A2993 RMK A01 T03080152  RH  039%=      5-min Rain = 0
KPG1 260142Z 03017G22KT 31/15 A2993 RMK A01 T03070152  RH  039%=      5-min Rain = 0
KPG1 260143Z 02015KT 31/15 A2993 RMK A01 T03070152  RH  039%=      5-min Rain = 0
KPG1 260144Z 03015KT 31/15 A2994 RMK A01 T03070153  RH  039%=      5-min Rain = 0
KPG1 260145Z 03014KT 31/15 A2994 RMK A01 T03060152  RH  039%=      5-min Rain = 0
KPG1 260146Z 03016KT 31/15 A2994 RMK A01 T03060152  RH  039%=      5-min Rain = 0
KPG1 260147Z 03013KT 31/15 A2994 RMK A01 T03060152  RH  039%=      5-min Rain = 0
KPG1 260148Z 03016G22KT 31/15 A2994 RMK A01 T03050152  RH  039%=      5-min Rain = 0
KPG1 260149Z 03016KT 31/15 A2994 RMK A01 T03050151  RH  039%=      5-min Rain = 0
KPG1 260150Z 03019KT 31/15 A2994 RMK A01 T03050151  RH  039%=      5-min Rain = 0
KPG1 260151Z 03017G22KT 31/15 A2994 RMK A01 T03050151  RH  039%=      5-min Rain = 0
KPG1 260152Z 03017KT 30/15 A2994 RMK A01 T03040151  RH  039%=      5-min Rain = 0
KPG1 260153Z 03017G22KT 30/15 A2994 RMK A01 T03040152  RH  040%=      5-min Rain = 0
KPG1 260154Z 03016KT 30/15 A2994 RMK A01 T03040153  RH  040%=      5-min Rain = 0
KPG1 260155Z 03015KT 30/16 A2994 RMK A01 T03030155  RH  041%=      5-min Rain = 0
KPG1 260156Z 03016KT 30/16 A2994 RMK A01 T03020157  RH  041%=      5-min Rain = 0
KPG1 260157Z 03015G20KT 30/16 A2994 RMK A01 T03020158  RH  042%=      5-min Rain = 0
KPG1 260158Z 03015KT 30/16 A2994 RMK A01 T03010158  RH  042%=      5-min Rain = 0
KPG1 260159Z 03014G19KT 30/16 A2994 RMK A01 T03010158  RH  042%=      5-min Rain = 0
KPG1 260200Z 03015G21KT 30/16 A2994 RMK A01 T03000158  RH  042%=      5-min Rain = 0
KPG1 260201Z 04012G17KT 30/16 A2994 RMK A01 T03000158  RH  042%=      5-min Rain = 0
KPG1 260202Z 03014KT 30/16 A2994 RMK A01 T03000159  RH  043%=      5-min Rain = 0
KPG1 260203Z 02015KT 30/16 A2994 RMK A01 T02990159  RH  043%=      5-min Rain = 0
KPG1 260204Z 03014KT 30/16 A2994 RMK A01 T02980159  RH  043%=      5-min Rain = 0
KPG1 260205Z 04012KT 30/16 A2994 RMK A01 T02970159  RH  043%=      5-min Rain = 0
KPG1 260206Z 03014KT 30/16 A2994 RMK A01 T02970159  RH  043%=      5-min Rain = 0
KPG1 260207Z 03012KT 30/16 A2994 RMK A01 T02970159  RH  043%=      5-min Rain = 0
KPG1 260208Z 04014KT 30/16 A2995 RMK A01 T02960159  RH  043%=      5-min Rain = 0
KPG1 260209Z 02012KT 30/16 A2994 RMK A01 T02960158  RH  043%=      5-min Rain = 0
KPG1 260210Z 02015KT 30/16 A2995 RMK A01 T02960159  RH  043%=      5-min Rain = 0
KPG1 260211Z 02015KT 30/16 A2995 RMK A01 T02950158  RH  043%=      5-min Rain = 0
KPG1 260212Z 03017KT 30/16 A2995 RMK A01 T02950158  RH  044%=      5-min Rain = 0
KPG1 260213Z 03016KT 29/16 A2995 RMK A01 T02940158  RH  044%=      5-min Rain = 0
KPG1 260214Z 03016KT 29/16 A2995 RMK A01 T02940158  RH  044%=      5-min Rain = 0
KPG1 260215Z 03015KT 29/16 A2995 RMK A01 T02940158  RH  044%=      5-min Rain = 0
KPG1 260216Z 03015KT 29/16 A2995 RMK A01 T02940158  RH  044%=      5-min Rain = 0
KPG1 260217Z 03013G18KT 29/16 A2995 RMK A01 T02930158  RH  044%=      5-min Rain = 0
KPG1 260218Z 02010G15KT 29/16 A2995 RMK A01 T02930158  RH  044%=      5-min Rain = 0
KPG1 260219Z 03011KT 29/16 A2995 RMK A01 T02920158  RH  044%=      5-min Rain = 0
KPG1 260220Z 03014KT 29/16 A2995 RMK A01 T02910158  RH  045%=      5-min Rain = 0
KPG1 260221Z 04016KT 29/16 A2995 RMK A01 T02910159  RH  045%=      5-min Rain = 0
KPG1 260222Z 03018KT 29/16 A2995 RMK A01 T02910158  RH  045%=      5-min Rain = 0
KPG1 260223Z 03014KT 29/16 A2995 RMK A01 T02910159  RH  045%=      5-min Rain = 0
KPG1 260224Z 03016KT 29/16 A2995 RMK A01 T02910159  RH  045%=      5-min Rain = 0
KPG1 260225Z 03014KT 29/16 A2995 RMK A01 T02910159  RH  045%=      5-min Rain = 0
KPG1 260226Z 03017KT 29/16 A2996 RMK A01 T02900159  RH  045%=      5-min Rain = 0
KPG1 260227Z 04015KT 29/16 A2996 RMK A01 T02900159  RH  045%=      5-min Rain = 0
KPG1 260228Z 03016KT 29/16 A2996 RMK A01 T02900159  RH  045%=      5-min Rain = 0
KPG1 260229Z 03017KT 29/16 A2996 RMK A01 T02900159  RH  045%=      5-min Rain = 0
KPG1 260230Z 04014KT 29/16 A2996 RMK A01 T02890159  RH  045%=      5-min Rain = 0
KPG1 260231Z 03014KT 29/16 A2996 RMK A01 T02890160  RH  046%=      5-min Rain = 0
KPG1 260232Z 03015KT 29/16 A2996 RMK A01 T02880159  RH  046%=      5-min Rain = 0
KPG1 260233Z 04015KT 29/16 A2996 RMK A01 T02880160  RH  046%=      5-min Rain = 0
KPG1 260234Z 03013KT 29/16 A2996 RMK A01 T02880160  RH  046%=      5-min Rain = 0
KPG1 260235Z 03015G20KT 29/16 A2996 RMK A01 T02880160  RH  046%=      5-min Rain = 0
KPG1 260236Z 04014KT 29/16 A2996 RMK A01 T02870160  RH  046%=      5-min Rain = 0
KPG1 260237Z 03010KT 29/16 A2996 RMK A01 T02870160  RH  046%=      5-min Rain = 0
KPG1 260238Z 03013KT 29/16 A2996 RMK A01 T02870161  RH  046%=      5-min Rain = 0
KPG1 260239Z 04011KT 29/16 A2996 RMK A01 T02860160  RH  047%=      5-min Rain = 0
KPG1 260240Z 04012KT 29/16 A2996 RMK A01 T02860161  RH  047%=      5-min Rain = 0
KPG1 260241Z 03012KT 29/16 A2996 RMK A01 T02850161  RH  047%=      5-min Rain = 0
KPG1 260242Z 03016KT 29/16 A2996 RMK A01 T02850161  RH  047%=      5-min Rain = 0
KPG1 260243Z 04014KT 29/16 A2996 RMK A01 T02850162  RH  047%=      5-min Rain = 0
KPG1 260244Z 03015KT 29/16 A2996 RMK A01 T02850162  RH  047%=      5-min Rain = 0
KPG1 260245Z 03014KT 29/16 A2996 RMK A01 T02850162  RH  047%=      5-min Rain = 0
KPG1 260246Z 04013KT 28/16 A2996 RMK A01 T02840162  RH  047%=      5-min Rain = 0
KPG1 260247Z 03014G19KT 28/16 A2996 RMK A01 T02840162  RH  048%=      5-min Rain = 0
KPG1 260248Z 03014KT 28/16 A2996 RMK A01 T02840162  RH  048%=      5-min Rain = 0
KPG1 260249Z 03014KT 28/16 A2996 RMK A01 T02830162  RH  048%=      5-min Rain = 0
KPG1 260250Z 03014G20KT 28/16 A2996 RMK A01 T02830162  RH  048%=      5-min Rain = 0
KPG1 260251Z 03013KT 28/16 A2997 RMK A01 T02830162  RH  048%=      5-min Rain = 0
KPG1 260252Z 03011KT 28/16 A2997 RMK A01 T02830163  RH  048%=      5-min Rain = 0
KPG1 260253Z 03010KT 28/16 A2997 RMK A01 T02820163  RH  048%=      5-min Rain = 0
KPG1 260254Z 04011KT 28/16 A2997 RMK A01 T02820163  RH  048%=      5-min Rain = 0
KPG1 260255Z 03012KT 28/16 A2997 RMK A01 T02820163  RH  049%=      5-min Rain = 0
KPG1 260256Z 03014KT 28/16 A2997 RMK A01 T02810163  RH  049%=      5-min Rain = 0
KPG1 260257Z 04011G16KT 28/16 A2997 RMK A01 T02810163  RH  049%=      5-min Rain = 0
KPG1 260258Z 03010KT 28/16 A2997 RMK A01 T02810163  RH  049%=      5-min Rain = 0
KPG1 260259Z 03010KT 28/16 A2997 RMK A01 T02810164  RH  049%=      5-min Rain = 0
KPG1 260300Z 02011KT 28/16 A2997 RMK A01 T02800163  RH  049%=      5-min Rain = 0
KPG1 260301Z 02012KT 28/16 A2997 RMK A01 T02800164  RH  049%=      5-min Rain = 0
KPG1 260302Z 02012KT 28/16 A2997 RMK A01 T02790164  RH  049%=      5-min Rain = 0
KPG1 260303Z 03011KT 28/16 A2997 RMK A01 T02790164  RH  049%=      5-min Rain = 0
KPG1 260304Z 03013KT 28/16 A2997 RMK A01 T02790164  RH  050%=      5-min Rain = 0
KPG1 260305Z 04013KT 28/16 A2997 RMK A01 T02790164  RH  050%=      5-min Rain = 0
KPG1 260306Z 03013KT 28/16 A2997 RMK A01 T02790164  RH  050%=      5-min Rain = 0
KPG1 260307Z 03015KT 28/16 A2997 RMK A01 T02790164  RH  050%=      5-min Rain = 0
KPG1 260308Z 03011KT 28/16 A2997 RMK A01 T02790164  RH  050%=      5-min Rain = 0
KPG1 260309Z 03013KT 28/16 A2997 RMK A01 T02780164  RH  050%=      5-min Rain = 0
KPG1 260310Z 03015KT 28/16 A2997 RMK A01 T02780164  RH  050%=      5-min Rain = 0
KPG1 260311Z 04014KT 28/16 A2997 RMK A01 T02780164  RH  050%=      5-min Rain = 0
KPG1 260312Z 03012KT 28/17 A2997 RMK A01 T02780165  RH  050%=      5-min Rain = 0
KPG1 260313Z 04009KT 28/17 A2997 RMK A01 T02770165  RH  050%=      5-min Rain = 0
KPG1 260314Z 03010KT 28/17 A2997 RMK A01 T02770165  RH  050%=      5-min Rain = 0
KPG1 260315Z 03012G17KT 28/17 A2997 RMK A01 T02760165  RH  051%=      5-min Rain = 0
KPG1 260316Z 03013KT 28/17 A2997 RMK A01 T02760165  RH  051%=      5-min Rain = 0
KPG1 260317Z 03011KT 28/17 A2997 RMK A01 T02760165  RH  051%=      5-min Rain = 0
KPG1 260318Z 04012KT 28/17 A2997 RMK A01 T02760165  RH  051%=      5-min Rain = 0
KPG1 260319Z 03010KT 28/17 A2997 RMK A01 T02760165  RH  051%=      5-min Rain = 0
KPG1 260320Z 03011KT 28/17 A2997 RMK A01 T02750165  RH  051%=      5-min Rain = 0
KPG1 260321Z 04012G17KT 28/17 A2997 RMK A01 T02750166  RH  051%=      5-min Rain = 0
KPG1 260322Z 03009KT 28/17 A2997 RMK A01 T02750166  RH  051%=      5-min Rain = 0
KPG1 260323Z 03014KT 27/17 A2997 RMK A01 T02740165  RH  051%=      5-min Rain = 0
KPG1 260324Z 03010KT 27/17 A2997 RMK A01 T02740165  RH  051%=      5-min Rain = 0
KPG1 260325Z 03011KT 27/17 A2997 RMK A01 T02740165  RH  051%=      5-min Rain = 0
KPG1 260326Z 03012KT 27/17 A2997 RMK A01 T02740166  RH  052%=      5-min Rain = 0
KPG1 260327Z 03011KT 27/17 A2997 RMK A01 T02740166  RH  052%=      5-min Rain = 0
KPG1 260328Z 03011KT 27/17 A2997 RMK A01 T02730166  RH  052%=      5-min Rain = 0
KPG1 260329Z 03011KT 27/17 A2997 RMK A01 T02730166  RH  052%=      5-min Rain = 0
KPG1 260330Z 03010KT 27/17 A2997 RMK A01 T02730166  RH  052%=      5-min Rain = 0
KPG1 260331Z 03010KT 27/17 A2997 RMK A01 T02730166  RH  052%=      5-min Rain = 0
KPG1 260332Z 03010KT 27/17 A2997 RMK A01 T02730166  RH  052%=      5-min Rain = 0
KPG1 260333Z 03010KT 27/17 A2998 RMK A01 T02730166  RH  052%=      5-min Rain = 0
KPG1 260334Z 04010KT 27/17 A2998 RMK A01 T02730166  RH  052%=      5-min Rain = 0
KPG1 260335Z 03008KT 27/17 A2998 RMK A01 T02720166  RH  052%=      5-min Rain = 0
KPG1 260336Z 03011KT 27/17 A2998 RMK A01 T02720166  RH  052%=      5-min Rain = 0
KPG1 260337Z 02009KT 27/17 A2998 RMK A01 T02710166  RH  053%=      5-min Rain = 0
KPG1 260338Z 02009KT 27/17 A2998 RMK A01 T02710167  RH  053%=      5-min Rain = 0
KPG1 260339Z 01008KT 27/17 A2998 RMK A01 T02710167  RH  053%=      5-min Rain = 0
KPG1 260340Z 02009KT 27/17 A2998 RMK A01 T02710167  RH  053%=      5-min Rain = 0
KPG1 260341Z 02009KT 27/17 A2998 RMK A01 T02700167  RH  053%=      5-min Rain = 0
KPG1 260342Z 02009KT 27/17 A2998 RMK A01 T02710167  RH  053%=      5-min Rain = 0
KPG1 260343Z 02009KT 27/17 A2999 RMK A01 T02700167  RH  053%=      5-min Rain = 0
KPG1 260344Z 01009KT 27/17 A2999 RMK A01 T02700167  RH  053%=      5-min Rain = 0
KPG1 260345Z 01010KT 27/17 A2999 RMK A01 T02700167  RH  053%=      5-min Rain = 0
KPG1 260346Z 01010KT 27/17 A2999 RMK A01 T02700167  RH  053%=      5-min Rain = 0
KPG1 260347Z 02009KT 27/17 A2999 RMK A01 T02690167  RH  053%=      5-min Rain = 0
KPG1 260348Z 01009KT 27/17 A2999 RMK A01 T02690167  RH  054%=      5-min Rain = 0
KPG1 260349Z 01011KT 27/17 A2999 RMK A01 T02690167  RH  054%=      5-min Rain = 0
KPG1 260350Z 02008KT 27/17 A2999 RMK A01 T02690167  RH  054%=      5-min Rain = 0
KPG1 260351Z 02008KT 27/17 A2999 RMK A01 T02690167  RH  054%=      5-min Rain = 0
KPG1 260352Z 02011KT 27/17 A2999 RMK A01 T02680167  RH  054%=      5-min Rain = 0
KPG1 260353Z 01010KT 27/17 A2999 RMK A01 T02680167  RH  054%=      5-min Rain = 0
KPG1 260354Z 02011KT 27/17 A2999 RMK A01 T02680167  RH  054%=      5-min Rain = 0
KPG1 260355Z 02009KT 27/17 A2999 RMK A01 T02680168  RH  054%=      5-min Rain = 0
KPG1 260356Z 02009KT 27/17 A30 RMK A01 T02680168  RH  054%=      5-min Rain = 0
KPG1 260357Z 02009KT 27/17 A30 RMK A01 T02670168  RH  054%=      5-min Rain = 0
KPG1 260358Z 02010KT 27/17 A30 RMK A01 T02670168  RH  054%=      5-min Rain = 0
KPG1 260359Z 03009KT 27/17 A30 RMK A01 T02670168  RH  054%=      5-min Rain = 0
KPG1 260400Z 03009KT 27/17 A30 RMK A01 T02670168  RH  054%=      5-min Rain = 0
KPG1 260401Z 02008KT 27/17 A30 RMK A01 T02670168  RH  055%=      5-min Rain = 0
KPG1 260402Z 03008KT 27/17 A30 RMK A01 T02670168  RH  055%=      5-min Rain = 0
KPG1 260403Z 02008KT 27/17 A30 RMK A01 T02660168  RH  055%=      5-min Rain = 0
KPG1 260404Z 02011KT 27/17 A30 RMK A01 T02660168  RH  055%=      5-min Rain = 0
KPG1 260405Z 01010KT 27/17 A30 RMK A01 T02650168  RH  055%=      5-min Rain = 0
KPG1 260406Z 02010KT 27/17 A30 RMK A01 T02650168  RH  055%=      5-min Rain = 0
KPG1 260407Z 02012KT 27/17 A30 RMK A01 T02650168  RH  055%=      5-min Rain = 0
KPG1 260408Z 02010KT 27/17 A30 RMK A01 T02650168  RH  055%=      5-min Rain = 0
KPG1 260409Z 02011KT 27/17 A30 RMK A01 T02650168  RH  055%=      5-min Rain = 0
KPG1 260410Z 02011KT 27/17 A30 RMK A01 T02650168  RH  055%=      5-min Rain = 0
KPG1 260411Z 02011KT 27/17 A30 RMK A01 T02650168  RH  055%=      5-min Rain = 0
KPG1 260412Z 03010KT 27/17 A30 RMK A01 T02650168  RH  055%=      5-min Rain = 0
KPG1 260413Z 02011KT 26/17 A30 RMK A01 T02640169  RH  056%=      5-min Rain = 0
KPG1 260414Z 03010KT 26/17 A30 RMK A01 T02640168  RH  056%=      5-min Rain = 0
KPG1 260415Z 02011KT 26/17 A30 RMK A01 T02640169  RH  056%=      5-min Rain = 0
KPG1 260416Z 01009KT 26/17 A30 RMK A01 T02630169  RH  056%=      5-min Rain = 0
KPG1 260417Z 02010KT 26/17 A30 RMK A01 T02630169  RH  056%=      5-min Rain = 0
KPG1 260418Z 01013KT 26/17 A30 RMK A01 T02620169  RH  056%=      5-min Rain = 0
KPG1 260419Z 02013KT 26/17 A30 RMK A01 T02620169  RH  056%=      5-min Rain = 0
KPG1 260420Z 02013KT 26/17 A3001 RMK A01 T02620169  RH  057%=      5-min Rain = 0
KPG1 260421Z 01012KT 26/17 A3001 RMK A01 T02620169  RH  057%=      5-min Rain = 0
KPG1 260422Z 02009KT 26/17 A3001 RMK A01 T02620169  RH  057%=      5-min Rain = 0
KPG1 260423Z 02012KT 26/17 A3001 RMK A01 T02620170  RH  057%=      5-min Rain = 0
KPG1 260424Z 02011KT 26/17 A3001 RMK A01 T02610170  RH  057%=      5-min Rain = 0
KPG1 260425Z 02013KT 26/17 A3001 RMK A01 T02610170  RH  057%=      5-min Rain = 0
KPG1 260426Z 02010KT 26/17 A3001 RMK A01 T02610170  RH  057%=      5-min Rain = 0
KPG1 260427Z 02012KT 26/17 A3001 RMK A01 T02610170  RH  057%=      5-min Rain = 0
KPG1 260428Z 02013G18KT 26/17 A3001 RMK A01 T02610170  RH  057%=      5-min Rain = 0
KPG1 260429Z 02014KT 26/17 A3001 RMK A01 T02600170  RH  057%=      5-min Rain = 0
KPG1 260430Z 02014KT 26/17 A3001 RMK A01 T02600170  RH  058%=      5-min Rain = 0
KPG1 260431Z 02014KT 26/17 A3001 RMK A01 T02600170  RH  058%=      5-min Rain = 0
KPG1 260432Z 02013KT 26/17 A3001 RMK A01 T02610170  RH  058%=      5-min Rain = 0
KPG1 260433Z 02015KT 26/17 A3001 RMK A01 T02600170  RH  058%=      5-min Rain = 0
KPG1 260434Z 02012KT 26/17 A3001 RMK A01 T02600171  RH  058%=      5-min Rain = 0
KPG1 260435Z 02013KT 26/17 A3001 RMK A01 T02600171  RH  058%=      5-min Rain = 0
KPG1 260436Z 02013KT 26/17 A3001 RMK A01 T02600171  RH  058%=      5-min Rain = 0
KPG1 260437Z 02012KT 26/17 A3001 RMK A01 T02600171  RH  058%=      5-min Rain = 0
KPG1 260438Z 02012KT 26/17 A3001 RMK A01 T02590171  RH  058%=      5-min Rain = 0
KPG1 260439Z 02014KT 26/17 A3001 RMK A01 T02590171  RH  058%=      5-min Rain = 0
KPG1 260440Z 03013KT 26/17 A3001 RMK A01 T02590171  RH  058%=      5-min Rain = 0
KPG1 260441Z 02012KT 26/17 A3001 RMK A01 T02590171  RH  058%=      5-min Rain = 0
KPG1 260442Z 02012KT 26/17 A3001 RMK A01 T02590171  RH  058%=      5-min Rain = 0
KPG1 260443Z 02012KT 26/17 A3001 RMK A01 T02580171  RH  059%=      5-min Rain = 0
KPG1 260444Z 02013KT 26/17 A3001 RMK A01 T02580171  RH  059%=      5-min Rain = 0
KPG1 260445Z 02013KT 26/17 A3001 RMK A01 T02570171  RH  059%=      5-min Rain = 0
KPG1 260446Z 02011KT 26/17 A3001 RMK A01 T02580171  RH  059%=      5-min Rain = 0
KPG1 260447Z 02011KT 26/17 A3001 RMK A01 T02570171  RH  059%=      5-min Rain = 0
KPG1 260448Z 03011KT 26/17 A3001 RMK A01 T02570171  RH  059%=      5-min Rain = 0
KPG1 260449Z 02013KT 26/17 A3001 RMK A01 T02560171  RH  059%=      5-min Rain = 0
KPG1 260450Z 02014KT 26/17 A3001 RMK A01 T02560171  RH  059%=      5-min Rain = 0
KPG1 260451Z 02014KT 26/17 A3001 RMK A01 T02560171  RH  059%=      5-min Rain = 0
KPG1 260452Z 02015KT 26/17 A3001 RMK A01 T02560171  RH  059%=      5-min Rain = 0
KPG1 260453Z 02014KT 26/17 A3001 RMK A01 T02560171  RH  059%=      5-min Rain = 0
KPG1 260454Z 02015KT 26/17 A3001 RMK A01 T02560171  RH  059%=      5-min Rain = 0
KPG1 260455Z 02015KT 26/17 A3001 RMK A01 T02560171  RH  059%=      5-min Rain = 0
KPG1 260456Z 02015KT 26/17 A3001 RMK A01 T02560171  RH  059%=      5-min Rain = 0
KPG1 260457Z 02016KT 26/17 A3001 RMK A01 T02560171  RH  059%=      5-min Rain = 0
KPG1 260458Z 02016KT 26/17 A3001 RMK A01 T02560171  RH  059%=      5-min Rain = 0
KPG1 260459Z 02016KT 26/17 A3001 RMK A01 T02550171  RH  060%=      5-min Rain = 0

Page generated in 0.1287 seconds.